PWSweather.com
Personal Weather Stations
Station Observations
KMNHANSK2
Thompson Farms, Hanska, MN 56041

Thompson FarmsHanska, MN 56041

Lat: 44.170119, Lon: -94.381619

Elevation: 1004

Station Type: Wireless Davis Instruments Vantage Pro2 Plus

http://www.madeliasliveweather.com/thompsonfarms/

Latest ConditionsUpdated 6:52:01 AM CST Monday, Jan 16, 2017
Currently Today's Max Today's Min Today's Average
Temperature 22.7°F-5.2°C 22.7°F-5.2°C 18.2°F-7.7°C 21.0°F-6.1°C
Dew Point 20.7°F-6.3°C 20.8°F-6.2°C 16.0°F-8.9°C 18.9°F-7.3°C
Winds 1.0 mph SSE1.6 kmh SSE 11.0 mph S17.7 kmh S - 2.7 mph 4.3 kmh
Wind Gusts 3.0 mph4.8 kmh 11.0 mph17.7 kmh - -
Humidity 92% 93% 89% 91%
Pressure 30.21 in1023.0 mb 30.26 in1024.7 mb 30.20 in1022.7 mb -
Hour Temp Dew Point Humidity Winds Wind Gusts Pressure Precip Precip Rate Daily Precip Total
06:52 AM 22.7°F-5.2°C 20.7°F-6.3°C 92% 1.0 mph SSE1.6 kmh SSE 3.0 mph4.8 kmh 30.21 in1023.0 mb 0.00 in0.0 mm 0.00 in0.0 mm 0.00 in0.0 mm
06:51 AM 22.7°F-5.2°C 20.7°F-6.3°C 92% Calm Calm 3.0 mph4.8 kmh 30.21 in1023.0 mb 0.00 in0.0 mm 0.00 in0.0 mm 0.00 in0.0 mm
06:50 AM 22.7°F-5.2°C 20.7°F-6.3°C 92% Calm Calm 3.0 mph4.8 kmh 30.21 in1023.0 mb 0.00 in0.0 mm 0.00 in0.0 mm 0.00 in0.0 mm
06:49 AM 22.7°F-5.2°C 20.7°F-6.3°C 92% Calm Calm 3.0 mph4.8 kmh 30.21 in1023.0 mb 0.00 in0.0 mm 0.00 in0.0 mm 0.00 in0.0 mm
06:48 AM 22.6°F-5.2°C 20.6°F-6.3°C 92% Calm Calm 3.0 mph4.8 kmh 30.21 in1023.0 mb 0.00 in0.0 mm 0.00 in0.0 mm 0.00 in0.0 mm
06:47 AM 22.5°F-5.3°C 20.5°F-6.4°C 92% Calm Calm 3.0 mph4.8 kmh 30.21 in1023.0 mb 0.00 in0.0 mm 0.00 in0.0 mm 0.00 in0.0 mm
06:46 AM 22.5°F-5.3°C 20.8°F-6.2°C 93% Calm Calm 3.0 mph4.8 kmh 30.21 in1023.0 mb 0.00 in0.0 mm 0.00 in0.0 mm 0.00 in0.0 mm
06:45 AM 22.5°F-5.3°C 20.8°F-6.2°C 93% Calm Calm 3.0 mph4.8 kmh 30.21 in1023.0 mb 0.00 in0.0 mm 0.00 in0.0 mm 0.00 in0.0 mm
06:44 AM 22.5°F-5.3°C 20.8°F-6.2°C 93% Calm Calm 3.0 mph4.8 kmh 30.21 in1023.0 mb 0.00 in0.0 mm 0.00 in0.0 mm 0.00 in0.0 mm
06:43 AM 22.4°F-5.3°C 20.7°F-6.3°C 93% Calm Calm 3.0 mph4.8 kmh 30.21 in1023.0 mb 0.00 in0.0 mm 0.00 in0.0 mm 0.00 in0.0 mm
06:42 AM 22.4°F-5.3°C 20.4°F-6.4°C 92% Calm Calm 3.0 mph4.8 kmh 30.21 in1023.0 mb 0.00 in0.0 mm 0.00 in0.0 mm 0.00 in0.0 mm
06:41 AM 22.3°F-5.4°C 20.3°F-6.5°C 92% 1.0 mph SSE1.6 kmh SSE 3.0 mph4.8 kmh 30.20 in1022.7 mb 0.00 in0.0 mm 0.00 in0.0 mm 0.00 in0.0 mm
06:40 AM 22.3°F-5.4°C 20.3°F-6.5°C 92% 1.0 mph SSE1.6 kmh SSE 3.0 mph4.8 kmh 30.21 in1023.0 mb 0.00 in0.0 mm 0.00 in0.0 mm 0.00 in0.0 mm
06:39 AM 22.3°F-5.4°C 20.3°F-6.5°C 92% 1.0 mph SSE1.6 kmh SSE 3.0 mph4.8 kmh 30.20 in1022.7 mb 0.00 in0.0 mm 0.00 in0.0 mm 0.00 in0.0 mm
06:38 AM 22.2°F-5.4°C 20.2°F-6.6°C 92% 2.0 mph SSE3.2 kmh SSE 3.0 mph4.8 kmh 30.20 in1022.7 mb 0.00 in0.0 mm 0.00 in0.0 mm 0.00 in0.0 mm
06:37 AM 22.2°F-5.4°C 20.2°F-6.6°C 92% 2.0 mph SSE3.2 kmh SSE 3.0 mph4.8 kmh 30.20 in1022.7 mb 0.00 in0.0 mm 0.00 in0.0 mm 0.00 in0.0 mm
06:36 AM 22.1°F-5.5°C 20.1°F-6.6°C 92% 2.0 mph SSE3.2 kmh SSE 3.0 mph4.8 kmh 30.20 in1022.7 mb 0.00 in0.0 mm 0.00 in0.0 mm 0.00 in0.0 mm
06:35 AM 22.1°F-5.5°C 20.1°F-6.6°C 92% 2.0 mph SSE3.2 kmh SSE 3.0 mph4.8 kmh 30.20 in1022.7 mb 0.00 in0.0 mm 0.00 in0.0 mm 0.00 in0.0 mm
06:34 AM 22.0°F-5.6°C 20.0°F-6.7°C 92% 3.0 mph SSE4.8 kmh SSE 3.0 mph4.8 kmh 30.20 in1022.7 mb 0.00 in0.0 mm 0.00 in0.0 mm 0.00 in0.0 mm
06:33 AM 22.0°F-5.6°C 20.0°F-6.7°C 92% 2.0 mph SSE3.2 kmh SSE 3.0 mph4.8 kmh 30.20 in1022.7 mb 0.00 in0.0 mm 0.00 in0.0 mm 0.00 in0.0 mm
06:32 AM 22.0°F-5.6°C 20.0°F-6.7°C 92% 2.0 mph SSE3.2 kmh SSE 3.0 mph4.8 kmh 30.20 in1022.7 mb 0.00 in0.0 mm 0.00 in0.0 mm 0.00 in0.0 mm
06:31 AM 21.9°F-5.6°C 19.9°F-6.7°C 92% 2.0 mph SSE3.2 kmh SSE 3.0 mph4.8 kmh 30.20 in1022.7 mb 0.00 in0.0 mm 0.00 in0.0 mm 0.00 in0.0 mm
06:30 AM 21.9°F-5.6°C 19.9°F-6.7°C 92% 2.0 mph SSE3.2 kmh SSE 3.0 mph4.8 kmh 30.20 in1022.7 mb 0.00 in0.0 mm 0.00 in0.0 mm 0.00 in0.0 mm
06:29 AM 21.8°F-5.7°C 19.8°F-6.8°C 92% Calm Calm 1.0 mph1.6 kmh 30.20 in1022.7 mb 0.00 in0.0 mm 0.00 in0.0 mm 0.00 in0.0 mm
06:28 AM 21.8°F-5.7°C 19.8°F-6.8°C 92% 1.0 mph SSE1.6 kmh SSE 1.0 mph1.6 kmh 30.20 in1022.7 mb 0.00 in0.0 mm 0.00 in0.0 mm 0.00 in0.0 mm
06:27 AM 21.8°F-5.7°C 19.8°F-6.8°C 92% Calm Calm 1.0 mph1.6 kmh 30.20 in1022.7 mb 0.00 in0.0 mm 0.00 in0.0 mm 0.00 in0.0 mm
06:26 AM 21.7°F-5.7°C 19.7°F-6.8°C 92% Calm Calm 1.0 mph1.6 kmh 30.21 in1023.0 mb 0.00 in0.0 mm 0.00 in0.0 mm 0.00 in0.0 mm
06:25 AM 21.7°F-5.7°C 19.7°F-6.8°C 92% Calm Calm 1.0 mph1.6 kmh 30.21 in1023.0 mb 0.00 in0.0 mm 0.00 in0.0 mm 0.00 in0.0 mm
06:24 AM 21.6°F-5.8°C 19.6°F-6.9°C 92% Calm Calm 1.0 mph1.6 kmh 30.21 in1023.0 mb 0.00 in0.0 mm 0.00 in0.0 mm 0.00 in0.0 mm
06:23 AM 21.6°F-5.8°C 19.6°F-6.9°C 92% Calm Calm 1.0 mph1.6 kmh 30.21 in1023.0 mb 0.00 in0.0 mm 0.00 in0.0 mm 0.00 in0.0 mm
06:22 AM 21.5°F-5.8°C 19.5°F-6.9°C 92% Calm Calm 1.0 mph1.6 kmh 30.21 in1023.0 mb 0.00 in0.0 mm 0.00 in0.0 mm 0.00 in0.0 mm
06:21 AM 21.4°F-5.9°C 19.4°F-7.0°C 92% Calm Calm 1.0 mph1.6 kmh 30.21 in1023.0 mb 0.00 in0.0 mm 0.00 in0.0 mm 0.00 in0.0 mm
06:20 AM 21.4°F-5.9°C 19.4°F-7.0°C 92% Calm Calm 1.0 mph1.6 kmh 30.21 in1023.0 mb 0.00 in0.0 mm 0.00 in0.0 mm 0.00 in0.0 mm
06:19 AM 21.3°F-5.9°C 19.3°F-7.1°C 92% Calm Calm 1.0 mph1.6 kmh 30.21 in1023.0 mb 0.00 in0.0 mm 0.00 in0.0 mm 0.00 in0.0 mm
06:18 AM 21.3°F-5.9°C 19.3°F-7.1°C 92% Calm Calm 1.0 mph1.6 kmh 30.21 in1023.0 mb 0.00 in0.0 mm 0.00 in0.0 mm 0.00 in0.0 mm
06:17 AM 21.3°F-5.9°C 19.3°F-7.1°C 92% Calm Calm 1.0 mph1.6 kmh 30.21 in1023.0 mb 0.00 in0.0 mm 0.00 in0.0 mm 0.00 in0.0 mm
06:16 AM 21.3°F-5.9°C 19.3°F-7.1°C 92% Calm Calm 1.0 mph1.6 kmh 30.21 in1023.0 mb 0.00 in0.0 mm 0.00 in0.0 mm 0.00 in0.0 mm
06:15 AM 21.3°F-5.9°C 19.3°F-7.1°C 92% Calm Calm 1.0 mph1.6 kmh 30.21 in1023.0 mb 0.00 in0.0 mm 0.00 in0.0 mm 0.00 in0.0 mm
06:14 AM 21.3°F-5.9°C 19.3°F-7.1°C 92% Calm Calm 1.0 mph1.6 kmh 30.21 in1023.0 mb 0.00 in0.0 mm 0.00 in0.0 mm 0.00 in0.0 mm
06:13 AM 21.3°F-5.9°C 19.3°F-7.1°C 92% Calm Calm 1.0 mph1.6 kmh 30.21 in1023.0 mb 0.00 in0.0 mm 0.00 in0.0 mm 0.00 in0.0 mm
06:12 AM 21.3°F-5.9°C 19.3°F-7.1°C 92% Calm Calm 1.0 mph1.6 kmh 30.21 in1023.0 mb 0.00 in0.0 mm 0.00 in0.0 mm 0.00 in0.0 mm
06:11 AM 21.3°F-5.9°C 19.3°F-7.1°C 92% Calm Calm 1.0 mph1.6 kmh 30.21 in1023.0 mb 0.00 in0.0 mm 0.00 in0.0 mm 0.00 in0.0 mm
06:10 AM 21.3°F-5.9°C 19.3°F-7.1°C 92% Calm Calm 1.0 mph1.6 kmh 30.20 in1022.7 mb 0.00 in0.0 mm 0.00 in0.0 mm 0.00 in0.0 mm
06:09 AM 21.3°F-5.9°C 19.3°F-7.1°C 92% Calm Calm 1.0 mph1.6 kmh 30.21 in1023.0 mb 0.00 in0.0 mm 0.00 in0.0 mm 0.00 in0.0 mm
06:08 AM 21.4°F-5.9°C 19.4°F-7.0°C 92% Calm Calm 1.0 mph1.6 kmh 30.21 in1023.0 mb 0.00 in0.0 mm 0.00 in0.0 mm 0.00 in0.0 mm
06:07 AM 21.4°F-5.9°C 19.4°F-7.0°C 92% Calm Calm 1.0 mph1.6 kmh 30.20 in1022.7 mb 0.00 in0.0 mm 0.00 in0.0 mm 0.00 in0.0 mm
06:06 AM 21.4°F-5.9°C 19.4°F-7.0°C 92% Calm Calm 1.0 mph1.6 kmh 30.20 in1022.7 mb 0.00 in0.0 mm 0.00 in0.0 mm 0.00 in0.0 mm
06:05 AM 21.5°F-5.8°C 19.5°F-6.9°C 92% Calm Calm 1.0 mph1.6 kmh 30.20 in1022.7 mb 0.00 in0.0 mm 0.00 in0.0 mm 0.00 in0.0 mm
06:04 AM 21.5°F-5.8°C 19.5°F-6.9°C 92% Calm Calm 1.0 mph1.6 kmh 30.20 in1022.7 mb 0.00 in0.0 mm 0.00 in0.0 mm 0.00 in0.0 mm
06:03 AM 21.5°F-5.8°C 19.5°F-6.9°C 92% Calm Calm 1.0 mph1.6 kmh 30.20 in1022.7 mb 0.00 in0.0 mm 0.00 in0.0 mm 0.00 in0.0 mm
06:02 AM 21.5°F-5.8°C 19.5°F-6.9°C 92% Calm Calm 1.0 mph1.6 kmh 30.20 in1022.7 mb 0.00 in0.0 mm 0.00 in0.0 mm 0.00 in0.0 mm
06:01 AM 21.5°F-5.8°C 19.5°F-6.9°C 92% Calm Calm 1.0 mph1.6 kmh 30.21 in1023.0 mb 0.00 in0.0 mm 0.00 in0.0 mm 0.00 in0.0 mm
06:00 AM 21.5°F-5.8°C 19.5°F-6.9°C 92% Calm Calm 1.0 mph1.6 kmh 30.20 in1022.7 mb 0.00 in0.0 mm 0.00 in0.0 mm 0.00 in0.0 mm
05:59 AM 21.6°F-5.8°C 19.6°F-6.9°C 92% 2.0 mph SSE3.2 kmh SSE 2.0 mph3.2 kmh 30.20 in1022.7 mb 0.00 in0.0 mm 0.00 in0.0 mm 0.00 in0.0 mm
05:58 AM 21.6°F-5.8°C 19.6°F-6.9°C 92% 2.0 mph SSE3.2 kmh SSE 2.0 mph3.2 kmh 30.20 in1022.7 mb 0.00 in0.0 mm 0.00 in0.0 mm 0.00 in0.0 mm
05:57 AM 21.6°F-5.8°C 19.6°F-6.9°C 92% 1.0 mph SSE1.6 kmh SSE 2.0 mph3.2 kmh 30.20 in1022.7 mb 0.00 in0.0 mm 0.00 in0.0 mm 0.00 in0.0 mm
05:56 AM 21.6°F-5.8°C 19.6°F-6.9°C 92% 1.0 mph SSE1.6 kmh SSE 2.0 mph3.2 kmh 30.21 in1023.0 mb 0.00 in0.0 mm 0.00 in0.0 mm 0.00 in0.0 mm
05:55 AM 21.6°F-5.8°C 19.6°F-6.9°C 92% 1.0 mph SSE1.6 kmh SSE 2.0 mph3.2 kmh 30.21 in1023.0 mb 0.00 in0.0 mm 0.00 in0.0 mm 0.00 in0.0 mm
05:54 AM 21.6°F-5.8°C 19.6°F-6.9°C 92% 2.0 mph SSE3.2 kmh SSE 2.0 mph3.2 kmh 30.21 in1023.0 mb 0.00 in0.0 mm 0.00 in0.0 mm 0.00 in0.0 mm
05:53 AM 21.6°F-5.8°C 19.6°F-6.9°C 92% 1.0 mph SSE1.6 kmh SSE 2.0 mph3.2 kmh 30.21 in1023.0 mb 0.00 in0.0 mm 0.00 in0.0 mm 0.00 in0.0 mm
05:52 AM 21.6°F-5.8°C 19.6°F-6.9°C 92% 1.0 mph SSE1.6 kmh SSE 2.0 mph3.2 kmh 30.21 in1023.0 mb 0.00 in0.0 mm 0.00 in0.0 mm 0.00 in0.0 mm
05:51 AM 21.6°F-5.8°C 19.6°F-6.9°C 92% 1.0 mph SSE1.6 kmh SSE 2.0 mph3.2 kmh 30.21 in1023.0 mb 0.00 in0.0 mm 0.00 in0.0 mm 0.00 in0.0 mm
05:50 AM 21.6°F-5.8°C 19.6°F-6.9°C 92% 1.0 mph SSE1.6 kmh SSE 2.0 mph3.2 kmh 30.21 in1023.0 mb 0.00 in0.0 mm 0.00 in0.0 mm 0.00 in0.0 mm
05:49 AM 21.6°F-5.8°C 19.6°F-6.9°C 92% 1.0 mph SSE1.6 kmh SSE 2.0 mph3.2 kmh 30.21 in1023.0 mb 0.00 in0.0 mm 0.00 in0.0 mm 0.00 in0.0 mm
05:48 AM 21.6°F-5.8°C 19.6°F-6.9°C 92% Calm Calm -- 30.21 in1023.0 mb 0.00 in0.0 mm 0.00 in0.0 mm 0.00 in0.0 mm
05:47 AM 21.7°F-5.7°C 19.7°F-6.8°C 92% Calm Calm -- 30.21 in1023.0 mb 0.00 in0.0 mm 0.00 in0.0 mm 0.00 in0.0 mm
05:46 AM 21.7°F-5.7°C 19.7°F-6.8°C 92% Calm Calm -- 30.21 in1023.0 mb 0.00 in0.0 mm 0.00 in0.0 mm 0.00 in0.0 mm
05:45 AM 21.7°F-5.7°C 19.7°F-6.8°C 92% Calm Calm -- 30.21 in1023.0 mb 0.00 in0.0 mm 0.00 in0.0 mm 0.00 in0.0 mm
05:44 AM 21.7°F-5.7°C 19.7°F-6.8°C 92% Calm Calm -- 30.21 in1023.0 mb 0.00 in0.0 mm 0.00 in0.0 mm 0.00 in0.0 mm
05:43 AM 21.7°F-5.7°C 19.7°F-6.8°C 92% Calm Calm -- 30.21 in1023.0 mb 0.00 in0.0 mm 0.00 in0.0 mm 0.00 in0.0 mm
05:42 AM 21.7°F-5.7°C 19.7°F-6.8°C 92% Calm Calm -- 30.21 in1023.0 mb 0.00 in0.0 mm 0.00 in0.0 mm 0.00 in0.0 mm
05:41 AM 21.7°F-5.7°C 19.7°F-6.8°C 92% Calm Calm -- 30.21 in1023.0 mb 0.00 in0.0 mm 0.00 in0.0 mm 0.00 in0.0 mm
05:40 AM 21.7°F-5.7°C 19.7°F-6.8°C 92% Calm Calm -- 30.21 in1023.0 mb 0.00 in0.0 mm 0.00 in0.0 mm 0.00 in0.0 mm
05:39 AM 21.7°F-5.7°C 19.7°F-6.8°C 92% Calm Calm -- 30.21 in1023.0 mb 0.00 in0.0 mm 0.00 in0.0 mm 0.00 in0.0 mm
05:38 AM 21.7°F-5.7°C 19.7°F-6.8°C 92% Calm Calm -- 30.21 in1023.0 mb 0.00 in0.0 mm 0.00 in0.0 mm 0.00 in0.0 mm
05:37 AM 21.7°F-5.7°C 19.7°F-6.8°C 92% Calm Calm -- 30.21 in1023.0 mb 0.00 in0.0 mm 0.00 in0.0 mm 0.00 in0.0 mm
05:36 AM 21.7°F-5.7°C 19.7°F-6.8°C 92% Calm Calm -- 30.21 in1023.0 mb 0.00 in0.0 mm 0.00 in0.0 mm 0.00 in0.0 mm
05:35 AM 21.8°F-5.7°C 19.8°F-6.8°C 92% Calm Calm -- 30.21 in1023.0 mb 0.00 in0.0 mm 0.00 in0.0 mm 0.00 in0.0 mm
05:34 AM 21.8°F-5.7°C 19.8°F-6.8°C 92% Calm Calm -- 30.21 in1023.0 mb 0.00 in0.0 mm 0.00 in0.0 mm 0.00 in0.0 mm
05:33 AM 21.8°F-5.7°C 19.8°F-6.8°C 92% Calm Calm -- 30.21 in1023.0 mb 0.00 in0.0 mm 0.00 in0.0 mm 0.00 in0.0 mm
05:32 AM 21.8°F-5.7°C 19.8°F-6.8°C 92% Calm Calm -- 30.21 in1023.0 mb 0.00 in0.0 mm 0.00 in0.0 mm 0.00 in0.0 mm
05:31 AM 21.9°F-5.6°C 19.9°F-6.7°C 92% Calm Calm -- 30.21 in1023.0 mb 0.00 in0.0 mm 0.00 in0.0 mm 0.00 in0.0 mm
05:30 AM 21.9°F-5.6°C 19.9°F-6.7°C 92% Calm Calm -- 30.21 in1023.0 mb 0.00 in0.0 mm 0.00 in0.0 mm 0.00 in0.0 mm
05:29 AM 21.9°F-5.6°C 19.9°F-6.7°C 92% Calm Calm -- 30.20 in1022.7 mb 0.00 in0.0 mm 0.00 in0.0 mm 0.00 in0.0 mm
05:28 AM 21.9°F-5.6°C 19.9°F-6.7°C 92% Calm Calm -- 30.21 in1023.0 mb 0.00 in0.0 mm 0.00 in0.0 mm 0.00 in0.0 mm
05:27 AM 21.9°F-5.6°C 19.9°F-6.7°C 92% Calm Calm -- 30.20 in1022.7 mb 0.00 in0.0 mm 0.00 in0.0 mm 0.00 in0.0 mm
05:26 AM 21.9°F-5.6°C 19.9°F-6.7°C 92% Calm Calm -- 30.20 in1022.7 mb 0.00 in0.0 mm 0.00 in0.0 mm 0.00 in0.0 mm
05:25 AM 21.8°F-5.7°C 19.8°F-6.8°C 92% Calm Calm -- 30.21 in1023.0 mb 0.00 in0.0 mm 0.00 in0.0 mm 0.00 in0.0 mm
05:24 AM 21.8°F-5.7°C 19.8°F-6.8°C 92% Calm Calm -- 30.21 in1023.0 mb 0.00 in0.0 mm 0.00 in0.0 mm 0.00 in0.0 mm
05:23 AM 21.8°F-5.7°C 19.8°F-6.8°C 92% Calm Calm -- 30.21 in1023.0 mb 0.00 in0.0 mm 0.00 in0.0 mm 0.00 in0.0 mm
05:22 AM 21.8°F-5.7°C 19.8°F-6.8°C 92% Calm Calm -- 30.21 in1023.0 mb 0.00 in0.0 mm 0.00 in0.0 mm 0.00 in0.0 mm
05:21 AM 21.8°F-5.7°C 19.8°F-6.8°C 92% Calm Calm -- 30.21 in1023.0 mb 0.00 in0.0 mm 0.00 in0.0 mm 0.00 in0.0 mm
05:20 AM 21.7°F-5.7°C 19.7°F-6.8°C 92% Calm Calm -- 30.21 in1023.0 mb 0.00 in0.0 mm 0.00 in0.0 mm 0.00 in0.0 mm
05:19 AM 21.7°F-5.7°C 19.7°F-6.8°C 92% Calm Calm -- 30.21 in1023.0 mb 0.00 in0.0 mm 0.00 in0.0 mm 0.00 in0.0 mm
05:18 AM 21.7°F-5.7°C 19.7°F-6.8°C 92% Calm Calm -- 30.22 in1023.4 mb 0.00 in0.0 mm 0.00 in0.0 mm 0.00 in0.0 mm
05:17 AM 21.6°F-5.8°C 19.6°F-6.9°C 92% Calm Calm -- 30.21 in1023.0 mb 0.00 in0.0 mm 0.00 in0.0 mm 0.00 in0.0 mm
05:16 AM 21.6°F-5.8°C 19.6°F-6.9°C 92% Calm Calm -- 30.22 in1023.4 mb 0.00 in0.0 mm 0.00 in0.0 mm 0.00 in0.0 mm
05:15 AM 21.6°F-5.8°C 19.6°F-6.9°C 92% Calm Calm -- 30.21 in1023.0 mb 0.00 in0.0 mm 0.00 in0.0 mm 0.00 in0.0 mm
05:14 AM 21.6°F-5.8°C 19.6°F-6.9°C 92% Calm Calm -- 30.21 in1023.0 mb 0.00 in0.0 mm 0.00 in0.0 mm 0.00 in0.0 mm
05:13 AM 21.6°F-5.8°C 19.6°F-6.9°C 92% Calm Calm -- 30.22 in1023.4 mb 0.00 in0.0 mm 0.00 in0.0 mm 0.00 in0.0 mm
05:12 AM 21.5°F-5.8°C 19.5°F-6.9°C 92% Calm Calm -- 30.21 in1023.0 mb 0.00 in0.0 mm 0.00 in0.0 mm 0.00 in0.0 mm
05:11 AM 21.5°F-5.8°C 19.5°F-6.9°C 92% Calm Calm -- 30.22 in1023.4 mb 0.00 in0.0 mm 0.00 in0.0 mm 0.00 in0.0 mm
05:10 AM 21.4°F-5.9°C 19.7°F-6.8°C 93% Calm Calm -- 30.22 in1023.4 mb 0.00 in0.0 mm 0.00 in0.0 mm 0.00 in0.0 mm
05:09 AM 21.4°F-5.9°C 19.4°F-7.0°C 92% Calm Calm -- 30.22 in1023.4 mb 0.00 in0.0 mm 0.00 in0.0 mm 0.00 in0.0 mm
05:08 AM 21.3°F-5.9°C 19.3°F-7.1°C 92% Calm Calm -- 30.22 in1023.4 mb 0.00 in0.0 mm 0.00 in0.0 mm 0.00 in0.0 mm
05:07 AM 21.2°F-6.0°C 19.2°F-7.1°C 92% Calm Calm -- 30.22 in1023.4 mb 0.00 in0.0 mm 0.00 in0.0 mm 0.00 in0.0 mm
05:06 AM 21.2°F-6.0°C 19.2°F-7.1°C 92% Calm Calm -- 30.22 in1023.4 mb 0.00 in0.0 mm 0.00 in0.0 mm 0.00 in0.0 mm
05:05 AM 21.1°F-6.1°C 19.1°F-7.2°C 92% Calm Calm -- 30.22 in1023.4 mb 0.00 in0.0 mm 0.00 in0.0 mm 0.00 in0.0 mm
05:04 AM 21.0°F-6.1°C 19.1°F-7.2°C 92% Calm Calm -- 30.22 in1023.4 mb 0.00 in0.0 mm 0.00 in0.0 mm 0.00 in0.0 mm
05:03 AM 20.9°F-6.2°C 19.2°F-7.1°C 93% Calm Calm -- 30.22 in1023.4 mb 0.00 in0.0 mm 0.00 in0.0 mm 0.00 in0.0 mm
05:02 AM 20.9°F-6.2°C 19.0°F-7.2°C 92% Calm Calm -- 30.22 in1023.4 mb 0.00 in0.0 mm 0.00 in0.0 mm 0.00 in0.0 mm
05:01 AM 20.8°F-6.2°C 18.9°F-7.3°C 92% Calm Calm -- 30.22 in1023.4 mb 0.00 in0.0 mm 0.00 in0.0 mm 0.00 in0.0 mm
05:00 AM 20.7°F-6.3°C 18.8°F-7.3°C 92% Calm Calm -- 30.22 in1023.4 mb 0.00 in0.0 mm 0.00 in0.0 mm 0.00 in0.0 mm
04:59 AM 20.7°F-6.3°C 18.8°F-7.3°C 92% Calm Calm 3.0 mph4.8 kmh 30.22 in1023.4 mb 0.00 in0.0 mm 0.00 in0.0 mm 0.00 in0.0 mm
04:58 AM 20.6°F-6.3°C 18.7°F-7.4°C 92% Calm Calm 3.0 mph4.8 kmh 30.22 in1023.4 mb 0.00 in0.0 mm 0.00 in0.0 mm 0.00 in0.0 mm
04:57 AM 20.6°F-6.3°C 18.7°F-7.4°C 92% Calm Calm 3.0 mph4.8 kmh 30.22 in1023.4 mb 0.00 in0.0 mm 0.00 in0.0 mm 0.00 in0.0 mm
04:56 AM 20.6°F-6.3°C 18.7°F-7.4°C 92% Calm Calm 3.0 mph4.8 kmh 30.22 in1023.4 mb 0.00 in0.0 mm 0.00 in0.0 mm 0.00 in0.0 mm
04:55 AM 20.6°F-6.3°C 18.7°F-7.4°C 92% 1.0 mph SSE1.6 kmh SSE 3.0 mph4.8 kmh 30.21 in1023.0 mb 0.00 in0.0 mm 0.00 in0.0 mm 0.00 in0.0 mm
04:54 AM 20.5°F-6.4°C 18.6°F-7.4°C 92% 2.0 mph SSE3.2 kmh SSE 3.0 mph4.8 kmh 30.22 in1023.4 mb 0.00 in0.0 mm 0.00 in0.0 mm 0.00 in0.0 mm
04:53 AM 20.5°F-6.4°C 18.6°F-7.4°C 92% 2.0 mph SSE3.2 kmh SSE 3.0 mph4.8 kmh 30.22 in1023.4 mb 0.00 in0.0 mm 0.00 in0.0 mm 0.00 in0.0 mm
04:52 AM 20.5°F-6.4°C 18.6°F-7.4°C 92% 2.0 mph SSE3.2 kmh SSE 3.0 mph4.8 kmh 30.22 in1023.4 mb 0.00 in0.0 mm 0.00 in0.0 mm 0.00 in0.0 mm
04:51 AM 20.5°F-6.4°C 18.6°F-7.4°C 92% 2.0 mph SSE3.2 kmh SSE 3.0 mph4.8 kmh 30.22 in1023.4 mb 0.00 in0.0 mm 0.00 in0.0 mm 0.00 in0.0 mm
04:50 AM 20.5°F-6.4°C 18.6°F-7.4°C 92% 2.0 mph SSE3.2 kmh SSE 3.0 mph4.8 kmh 30.22 in1023.4 mb 0.00 in0.0 mm 0.00 in0.0 mm 0.00 in0.0 mm
04:49 AM 20.5°F-6.4°C 18.6°F-7.4°C 92% Calm Calm 3.0 mph4.8 kmh 30.22 in1023.4 mb 0.00 in0.0 mm 0.00 in0.0 mm 0.00 in0.0 mm
04:48 AM 20.5°F-6.4°C 18.6°F-7.4°C 92% Calm Calm 3.0 mph4.8 kmh 30.22 in1023.4 mb 0.00 in0.0 mm 0.00 in0.0 mm 0.00 in0.0 mm
04:47 AM 20.5°F-6.4°C 18.6°F-7.4°C 92% Calm Calm 3.0 mph4.8 kmh 30.22 in1023.4 mb 0.00 in0.0 mm 0.00 in0.0 mm 0.00 in0.0 mm
04:46 AM 20.5°F-6.4°C 18.6°F-7.4°C 92% Calm Calm 3.0 mph4.8 kmh 30.22 in1023.4 mb 0.00 in0.0 mm 0.00 in0.0 mm 0.00 in0.0 mm
04:45 AM 20.5°F-6.4°C 18.8°F-7.3°C 93% Calm Calm 3.0 mph4.8 kmh 30.22 in1023.4 mb 0.00 in0.0 mm 0.00 in0.0 mm 0.00 in0.0 mm
04:44 AM 20.4°F-6.4°C 18.7°F-7.4°C 93% Calm Calm 3.0 mph4.8 kmh 30.22 in1023.4 mb 0.00 in0.0 mm 0.00 in0.0 mm 0.00 in0.0 mm
04:43 AM 20.4°F-6.4°C 18.7°F-7.4°C 93% Calm Calm 3.0 mph4.8 kmh 30.22 in1023.4 mb 0.00 in0.0 mm 0.00 in0.0 mm 0.00 in0.0 mm
04:42 AM 20.3°F-6.5°C 18.6°F-7.4°C 93% Calm Calm 3.0 mph4.8 kmh 30.22 in1023.4 mb 0.00 in0.0 mm 0.00 in0.0 mm 0.00 in0.0 mm
04:41 AM 20.3°F-6.5°C 18.4°F-7.6°C 92% 1.0 mph SSE1.6 kmh SSE 3.0 mph4.8 kmh 30.22 in1023.4 mb 0.00 in0.0 mm 0.00 in0.0 mm 0.00 in0.0 mm
04:40 AM 20.3°F-6.5°C 18.4°F-7.6°C 92% Calm Calm 3.0 mph4.8 kmh 30.22 in1023.4 mb 0.00 in0.0 mm 0.00 in0.0 mm 0.00 in0.0 mm
04:39 AM 20.2°F-6.6°C 18.3°F-7.6°C 92% 1.0 mph SSE1.6 kmh SSE 3.0 mph4.8 kmh 30.22 in1023.4 mb 0.00 in0.0 mm 0.00 in0.0 mm 0.00 in0.0 mm
04:38 AM 20.1°F-6.6°C 18.2°F-7.7°C 92% 2.0 mph SSE3.2 kmh SSE 3.0 mph4.8 kmh 30.22 in1023.4 mb 0.00 in0.0 mm 0.00 in0.0 mm 0.00 in0.0 mm
04:37 AM 20.1°F-6.6°C 18.2°F-7.7°C 92% 2.0 mph SSE3.2 kmh SSE 3.0 mph4.8 kmh 30.22 in1023.4 mb 0.00 in0.0 mm 0.00 in0.0 mm 0.00 in0.0 mm
04:36 AM 20.0°F-6.7°C 18.1°F-7.7°C 92% 3.0 mph SSE4.8 kmh SSE 3.0 mph4.8 kmh 30.22 in1023.4 mb 0.00 in0.0 mm 0.00 in0.0 mm 0.00 in0.0 mm
04:35 AM 20.0°F-6.7°C 18.1°F-7.7°C 92% 2.0 mph SSE3.2 kmh SSE 3.0 mph4.8 kmh 30.22 in1023.4 mb 0.00 in0.0 mm 0.00 in0.0 mm 0.00 in0.0 mm
04:34 AM 20.0°F-6.7°C 18.3°F-7.6°C 93% 3.0 mph SSE4.8 kmh SSE 3.0 mph4.8 kmh 30.22 in1023.4 mb 0.00 in0.0 mm 0.00 in0.0 mm 0.00 in0.0 mm
04:33 AM 19.9°F-6.7°C 18.2°F-7.7°C 93% 3.0 mph SSE4.8 kmh SSE 3.0 mph4.8 kmh 30.22 in1023.4 mb 0.00 in0.0 mm 0.00 in0.0 mm 0.00 in0.0 mm
04:32 AM 19.9°F-6.7°C 18.2°F-7.7°C 93% 1.0 mph SSE1.6 kmh SSE 2.0 mph3.2 kmh 30.22 in1023.4 mb 0.00 in0.0 mm 0.00 in0.0 mm 0.00 in0.0 mm
04:31 AM 19.9°F-6.7°C 18.2°F-7.7°C 93% 2.0 mph SSE3.2 kmh SSE 2.0 mph3.2 kmh 30.23 in1023.7 mb 0.00 in0.0 mm 0.00 in0.0 mm 0.00 in0.0 mm
04:30 AM 19.8°F-6.8°C 18.1°F-7.7°C 93% 1.0 mph SSE1.6 kmh SSE 1.0 mph1.6 kmh 30.23 in1023.7 mb 0.00 in0.0 mm 0.00 in0.0 mm 0.00 in0.0 mm
04:29 AM 19.8°F-6.8°C 18.1°F-7.7°C 93% 1.0 mph SSE1.6 kmh SSE 3.0 mph4.8 kmh 30.23 in1023.7 mb 0.00 in0.0 mm 0.00 in0.0 mm 0.00 in0.0 mm
04:28 AM 19.7°F-6.8°C 17.8°F-7.9°C 92% 2.0 mph SSE3.2 kmh SSE 3.0 mph4.8 kmh 30.23 in1023.7 mb 0.00 in0.0 mm 0.00 in0.0 mm 0.00 in0.0 mm
04:27 AM 19.7°F-6.8°C 18.0°F-7.8°C 93% 2.0 mph SSE3.2 kmh SSE 3.0 mph4.8 kmh 30.23 in1023.7 mb 0.00 in0.0 mm 0.00 in0.0 mm 0.00 in0.0 mm
04:26 AM 19.6°F-6.9°C 17.9°F-7.8°C 93% 2.0 mph SSE3.2 kmh SSE 3.0 mph4.8 kmh 30.23 in1023.7 mb 0.00 in0.0 mm 0.00 in0.0 mm 0.00 in0.0 mm
04:25 AM 19.5°F-6.9°C 17.8°F-7.9°C 93% 3.0 mph SSE4.8 kmh SSE 3.0 mph4.8 kmh 30.23 in1023.7 mb 0.00 in0.0 mm 0.00 in0.0 mm 0.00 in0.0 mm
04:24 AM 19.4°F-7.0°C 17.5°F-8.1°C 92% 2.0 mph SSE3.2 kmh SSE 3.0 mph4.8 kmh 30.23 in1023.7 mb 0.00 in0.0 mm 0.00 in0.0 mm 0.00 in0.0 mm
04:23 AM 19.3°F-7.1°C 17.6°F-8.0°C 93% 2.0 mph SSE3.2 kmh SSE 3.0 mph4.8 kmh 30.23 in1023.7 mb 0.00 in0.0 mm 0.00 in0.0 mm 0.00 in0.0 mm
04:22 AM 19.2°F-7.1°C 17.3°F-8.2°C 92% 2.0 mph SSE3.2 kmh SSE 3.0 mph4.8 kmh 30.23 in1023.7 mb 0.00 in0.0 mm 0.00 in0.0 mm 0.00 in0.0 mm
04:21 AM 19.2°F-7.1°C 17.3°F-8.2°C 92% 2.0 mph SSE3.2 kmh SSE 3.0 mph4.8 kmh 30.23 in1023.7 mb 0.00 in0.0 mm 0.00 in0.0 mm 0.00 in0.0 mm
04:20 AM 19.1°F-7.2°C 17.2°F-8.2°C 92% 2.0 mph SSE3.2 kmh SSE 3.0 mph4.8 kmh 30.23 in1023.7 mb 0.00 in0.0 mm 0.00 in0.0 mm 0.00 in0.0 mm
04:19 AM 19.1°F-7.2°C 17.2°F-8.2°C 92% Calm Calm 3.0 mph4.8 kmh 30.23 in1023.7 mb 0.00 in0.0 mm 0.00 in0.0 mm 0.00 in0.0 mm
04:18 AM 19.0°F-7.2°C 17.1°F-8.3°C 92% Calm Calm 3.0 mph4.8 kmh 30.23 in1023.7 mb 0.00 in0.0 mm 0.00 in0.0 mm 0.00 in0.0 mm
04:17 AM 19.0°F-7.2°C 17.1°F-8.3°C 92% Calm Calm 3.0 mph4.8 kmh 30.23 in1023.7 mb 0.00 in0.0 mm 0.00 in0.0 mm 0.00 in0.0 mm
04:16 AM 19.0°F-7.2°C 17.1°F-8.3°C 92% Calm Calm 3.0 mph4.8 kmh 30.23 in1023.7 mb 0.00 in0.0 mm 0.00 in0.0 mm 0.00 in0.0 mm
04:15 AM 19.0°F-7.2°C 17.1°F-8.3°C 92% Calm Calm 3.0 mph4.8 kmh 30.23 in1023.7 mb 0.00 in0.0 mm 0.00 in0.0 mm 0.00 in0.0 mm
04:14 AM 18.9°F-7.3°C 17.0°F-8.3°C 92% Calm Calm 3.0 mph4.8 kmh 30.24 in1024.0 mb 0.00 in0.0 mm 0.00 in0.0 mm 0.00 in0.0 mm
04:13 AM 18.9°F-7.3°C 17.0°F-8.3°C 92% Calm Calm 3.0 mph4.8 kmh 30.24 in1024.0 mb 0.00 in0.0 mm 0.00 in0.0 mm 0.00 in0.0 mm
04:12 AM 18.9°F-7.3°C 17.0°F-8.3°C 92% 2.0 mph SSE3.2 kmh SSE 3.0 mph4.8 kmh 30.24 in1024.0 mb 0.00 in0.0 mm 0.00 in0.0 mm 0.00 in0.0 mm
04:11 AM 18.9°F-7.3°C 17.0°F-8.3°C 92% 2.0 mph SSE3.2 kmh SSE 3.0 mph4.8 kmh 30.24 in1024.0 mb 0.00 in0.0 mm 0.00 in0.0 mm 0.00 in0.0 mm
04:10 AM 19.0°F-7.2°C 17.1°F-8.3°C 92% 2.0 mph SSE3.2 kmh SSE 3.0 mph4.8 kmh 30.24 in1024.0 mb 0.00 in0.0 mm 0.00 in0.0 mm 0.00 in0.0 mm
04:09 AM 19.0°F-7.2°C 17.1°F-8.3°C 92% 2.0 mph SSE3.2 kmh SSE 3.0 mph4.8 kmh 30.24 in1024.0 mb 0.00 in0.0 mm 0.00 in0.0 mm 0.00 in0.0 mm
04:08 AM 19.0°F-7.2°C 17.1°F-8.3°C 92% 2.0 mph SSE3.2 kmh SSE 3.0 mph4.8 kmh 30.24 in1024.0 mb 0.00 in0.0 mm 0.00 in0.0 mm 0.00 in0.0 mm
04:07 AM 18.9°F-7.3°C 17.0°F-8.3°C 92% 2.0 mph SSE3.2 kmh SSE 3.0 mph4.8 kmh 30.24 in1024.0 mb 0.00 in0.0 mm 0.00 in0.0 mm 0.00 in0.0 mm
04:06 AM 18.8°F-7.3°C 16.9°F-8.4°C 92% 2.0 mph SSE3.2 kmh SSE 2.0 mph3.2 kmh 30.24 in1024.0 mb 0.00 in0.0 mm 0.00 in0.0 mm 0.00 in0.0 mm
04:05 AM 18.6°F-7.4°C 16.7°F-8.5°C 92% 2.0 mph SSE3.2 kmh SSE 2.0 mph3.2 kmh 30.24 in1024.0 mb 0.00 in0.0 mm 0.00 in0.0 mm 0.00 in0.0 mm
04:04 AM 18.4°F-7.6°C 16.5°F-8.6°C 92% 1.0 mph SSE1.6 kmh SSE 2.0 mph3.2 kmh 30.24 in1024.0 mb 0.00 in0.0 mm 0.00 in0.0 mm 0.00 in0.0 mm
04:03 AM 18.3°F-7.6°C 16.4°F-8.7°C 92% 1.0 mph SSE1.6 kmh SSE 2.0 mph3.2 kmh 30.24 in1024.0 mb 0.00 in0.0 mm 0.00 in0.0 mm 0.00 in0.0 mm
04:02 AM 18.2°F-7.7°C 16.0°F-8.9°C 91% 1.0 mph SSE1.6 kmh SSE 2.0 mph3.2 kmh 30.24 in1024.0 mb 0.00 in0.0 mm 0.00 in0.0 mm 0.00 in0.0 mm
04:01 AM 18.2°F-7.7°C 16.0°F-8.9°C 91% 2.0 mph SSE3.2 kmh SSE 2.0 mph3.2 kmh 30.24 in1024.0 mb 0.00 in0.0 mm 0.00 in0.0 mm 0.00 in0.0 mm
04:00 AM 18.3°F-7.6°C 16.1°F-8.8°C 91% 2.0 mph SSE3.2 kmh SSE 2.0 mph3.2 kmh 30.24 in1024.0 mb 0.00 in0.0 mm 0.00 in0.0 mm 0.00 in0.0 mm
03:59 AM 18.4°F-7.6°C 16.2°F-8.8°C 91% 2.0 mph SSE3.2 kmh SSE 3.0 mph4.8 kmh 30.24 in1024.0 mb 0.00 in0.0 mm 0.00 in0.0 mm 0.00 in0.0 mm
03:58 AM 19.0°F-7.2°C 16.8°F-8.4°C 91% 2.0 mph SSE3.2 kmh SSE 3.0 mph4.8 kmh 30.24 in1024.0 mb 0.00 in0.0 mm 0.00 in0.0 mm 0.00 in0.0 mm
03:57 AM 19.0°F-7.2°C 16.8°F-8.4°C 91% 2.0 mph SSE3.2 kmh SSE 3.0 mph4.8 kmh 30.24 in1024.0 mb 0.00 in0.0 mm 0.00 in0.0 mm 0.00 in0.0 mm
03:56 AM 19.0°F-7.2°C 16.8°F-8.4°C 91% 2.0 mph SSE3.2 kmh SSE 3.0 mph4.8 kmh 30.24 in1024.0 mb 0.00 in0.0 mm 0.00 in0.0 mm 0.00 in0.0 mm
03:55 AM 19.0°F-7.2°C 16.8°F-8.4°C 91% 2.0 mph SSE3.2 kmh SSE 3.0 mph4.8 kmh 30.24 in1024.0 mb 0.00 in0.0 mm 0.00 in0.0 mm 0.00 in0.0 mm
03:54 AM 19.0°F-7.2°C 16.8°F-8.4°C 91% 2.0 mph SSE3.2 kmh SSE 3.0 mph4.8 kmh 30.24 in1024.0 mb 0.00 in0.0 mm 0.00 in0.0 mm 0.00 in0.0 mm
03:53 AM 19.0°F-7.2°C 16.8°F-8.4°C 91% 2.0 mph SSE3.2 kmh SSE 3.0 mph4.8 kmh 30.24 in1024.0 mb 0.00 in0.0 mm 0.00 in0.0 mm 0.00 in0.0 mm
03:52 AM 19.1°F-7.2°C 16.9°F-8.4°C 91% 2.0 mph SSE3.2 kmh SSE 3.0 mph4.8 kmh 30.24 in1024.0 mb 0.00 in0.0 mm 0.00 in0.0 mm 0.00 in0.0 mm
03:51 AM 19.3°F-7.1°C 17.1°F-8.3°C 91% 2.0 mph SSE3.2 kmh SSE 2.0 mph3.2 kmh 30.24 in1024.0 mb 0.00 in0.0 mm 0.00 in0.0 mm 0.00 in0.0 mm
03:50 AM 19.3°F-7.1°C 17.1°F-8.3°C 91% 2.0 mph SSE3.2 kmh SSE 2.0 mph3.2 kmh 30.24 in1024.0 mb 0.00 in0.0 mm 0.00 in0.0 mm 0.00 in0.0 mm
03:48 AM 19.5°F-6.9°C 17.3°F-8.2°C 91% 2.0 mph SSE3.2 kmh SSE 2.0 mph3.2 kmh 30.24 in1024.0 mb 0.00 in0.0 mm 0.00 in0.0 mm 0.00 in0.0 mm
03:47 AM 19.5°F-6.9°C 17.3°F-8.2°C 91% 1.0 mph SSE1.6 kmh SSE 2.0 mph3.2 kmh 30.24 in1024.0 mb 0.00 in0.0 mm 0.00 in0.0 mm 0.00 in0.0 mm
03:46 AM 19.5°F-6.9°C 17.3°F-8.2°C 91% 1.0 mph SSE1.6 kmh SSE 2.0 mph3.2 kmh 30.24 in1024.0 mb 0.00 in0.0 mm 0.00 in0.0 mm 0.00 in0.0 mm
03:45 AM 19.4°F-7.0°C 17.2°F-8.2°C 91% 2.0 mph SSE3.2 kmh SSE 2.0 mph3.2 kmh 30.24 in1024.0 mb 0.00 in0.0 mm 0.00 in0.0 mm 0.00 in0.0 mm
03:44 AM 19.5°F-6.9°C 17.3°F-8.2°C 91% Calm Calm 2.0 mph3.2 kmh 30.24 in1024.0 mb 0.00 in0.0 mm 0.00 in0.0 mm 0.00 in0.0 mm
03:43 AM 19.5°F-6.9°C 17.3°F-8.2°C 91% Calm Calm 2.0 mph3.2 kmh 30.24 in1024.0 mb 0.00 in0.0 mm 0.00 in0.0 mm 0.00 in0.0 mm
03:42 AM 19.5°F-6.9°C 17.3°F-8.2°C 91% Calm Calm 2.0 mph3.2 kmh 30.24 in1024.0 mb 0.00 in0.0 mm 0.00 in0.0 mm 0.00 in0.0 mm
03:41 AM 19.6°F-6.9°C 17.4°F-8.1°C 91% Calm Calm 2.0 mph3.2 kmh 30.24 in1024.0 mb 0.00 in0.0 mm 0.00 in0.0 mm 0.00 in0.0 mm
03:40 AM 19.6°F-6.9°C 17.4°F-8.1°C 91% Calm Calm 2.0 mph3.2 kmh 30.24 in1024.0 mb 0.00 in0.0 mm 0.00 in0.0 mm 0.00 in0.0 mm
03:39 AM 19.7°F-6.8°C 17.5°F-8.1°C 91% Calm Calm 2.0 mph3.2 kmh 30.24 in1024.0 mb 0.00 in0.0 mm 0.00 in0.0 mm 0.00 in0.0 mm
03:38 AM 19.7°F-6.8°C 17.5°F-8.1°C 91% Calm Calm 2.0 mph3.2 kmh 30.24 in1024.0 mb 0.00 in0.0 mm 0.00 in0.0 mm 0.00 in0.0 mm
03:37 AM 19.7°F-6.8°C 17.5°F-8.1°C 91% Calm Calm 2.0 mph3.2 kmh 30.24 in1024.0 mb 0.00 in0.0 mm 0.00 in0.0 mm 0.00 in0.0 mm
03:36 AM 19.7°F-6.8°C 17.5°F-8.1°C 91% Calm Calm 2.0 mph3.2 kmh 30.24 in1024.0 mb 0.00 in0.0 mm 0.00 in0.0 mm 0.00 in0.0 mm
03:35 AM 19.7°F-6.8°C 17.5°F-8.1°C 91% Calm Calm 2.0 mph3.2 kmh 30.24 in1024.0 mb 0.00 in0.0 mm 0.00 in0.0 mm 0.00 in0.0 mm
03:34 AM 19.7°F-6.8°C 17.5°F-8.1°C 91% Calm Calm 2.0 mph3.2 kmh 30.24 in1024.0 mb 0.00 in0.0 mm 0.00 in0.0 mm 0.00 in0.0 mm
03:33 AM 19.7°F-6.8°C 17.5°F-8.1°C 91% 1.0 mph SSE1.6 kmh SSE 2.0 mph3.2 kmh 30.24 in1024.0 mb 0.00 in0.0 mm 0.00 in0.0 mm 0.00 in0.0 mm
03:32 AM 19.6°F-6.9°C 17.4°F-8.1°C 91% 2.0 mph SSE3.2 kmh SSE 2.0 mph3.2 kmh 30.24 in1024.0 mb 0.00 in0.0 mm 0.00 in0.0 mm 0.00 in0.0 mm
03:31 AM 19.7°F-6.8°C 17.5°F-8.1°C 91% 2.0 mph SSE3.2 kmh SSE 2.0 mph3.2 kmh 30.24 in1024.0 mb 0.00 in0.0 mm 0.00 in0.0 mm 0.00 in0.0 mm
03:30 AM 19.7°F-6.8°C 17.5°F-8.1°C 91% 1.0 mph SSE1.6 kmh SSE 1.0 mph1.6 kmh 30.24 in1024.0 mb 0.00 in0.0 mm 0.00 in0.0 mm 0.00 in0.0 mm
03:29 AM 19.7°F-6.8°C 17.5°F-8.1°C 91% 1.0 mph SSE1.6 kmh SSE 4.0 mph6.4 kmh 30.24 in1024.0 mb 0.00 in0.0 mm 0.00 in0.0 mm 0.00 in0.0 mm
03:28 AM 19.8°F-6.8°C 17.6°F-8.0°C 91% 1.0 mph SSE1.6 kmh SSE 4.0 mph6.4 kmh 30.24 in1024.0 mb 0.00 in0.0 mm 0.00 in0.0 mm 0.00 in0.0 mm
03:27 AM 19.8°F-6.8°C 17.6°F-8.0°C 91% 1.0 mph SSE1.6 kmh SSE 4.0 mph6.4 kmh 30.24 in1024.0 mb 0.00 in0.0 mm 0.00 in0.0 mm 0.00 in0.0 mm
03:26 AM 19.9°F-6.7°C 17.7°F-7.9°C 91% 2.0 mph SSE3.2 kmh SSE 4.0 mph6.4 kmh 30.24 in1024.0 mb 0.00 in0.0 mm 0.00 in0.0 mm 0.00 in0.0 mm
03:25 AM 19.8°F-6.8°C 17.6°F-8.0°C 91% 2.0 mph SSE3.2 kmh SSE 4.0 mph6.4 kmh 30.24 in1024.0 mb 0.00 in0.0 mm 0.00 in0.0 mm 0.00 in0.0 mm
03:24 AM 19.8°F-6.8°C 17.6°F-8.0°C 91% 2.0 mph SSE3.2 kmh SSE 4.0 mph6.4 kmh 30.24 in1024.0 mb 0.00 in0.0 mm 0.00 in0.0 mm 0.00 in0.0 mm
03:23 AM 19.8°F-6.8°C 17.6°F-8.0°C 91% 3.0 mph SSE4.8 kmh SSE 4.0 mph6.4 kmh 30.24 in1024.0 mb 0.00 in0.0 mm 0.00 in0.0 mm 0.00 in0.0 mm
03:22 AM 19.8°F-6.8°C 17.6°F-8.0°C 91% 2.0 mph SSE3.2 kmh SSE 4.0 mph6.4 kmh 30.24 in1024.0 mb 0.00 in0.0 mm 0.00 in0.0 mm 0.00 in0.0 mm
03:21 AM 19.8°F-6.8°C 17.6°F-8.0°C 91% 2.0 mph SSE3.2 kmh SSE 4.0 mph6.4 kmh 30.24 in1024.0 mb 0.00 in0.0 mm 0.00 in0.0 mm 0.00 in0.0 mm
03:20 AM 19.8°F-6.8°C 17.6°F-8.0°C 91% 3.0 mph SSE4.8 kmh SSE 4.0 mph6.4 kmh 30.24 in1024.0 mb 0.00 in0.0 mm 0.00 in0.0 mm 0.00 in0.0 mm
03:19 AM 19.8°F-6.8°C 17.6°F-8.0°C 91% 2.0 mph SSE3.2 kmh SSE 4.0 mph6.4 kmh 30.24 in1024.0 mb 0.00 in0.0 mm 0.00 in0.0 mm 0.00 in0.0 mm
03:18 AM 19.8°F-6.8°C 17.6°F-8.0°C 91% 2.0 mph SSE3.2 kmh SSE 4.0 mph6.4 kmh 30.25 in1024.4 mb 0.00 in0.0 mm 0.00 in0.0 mm 0.00 in0.0 mm
03:17 AM 19.9°F-6.7°C 17.7°F-7.9°C 91% 2.0 mph SSE3.2 kmh SSE 4.0 mph6.4 kmh 30.25 in1024.4 mb 0.00 in0.0 mm 0.00 in0.0 mm 0.00 in0.0 mm
03:16 AM 19.9°F-6.7°C 17.7°F-7.9°C 91% 2.0 mph SSE3.2 kmh SSE 4.0 mph6.4 kmh 30.25 in1024.4 mb 0.00 in0.0 mm 0.00 in0.0 mm 0.00 in0.0 mm
03:15 AM 20.0°F-6.7°C 18.1°F-7.7°C 92% 2.0 mph SSE3.2 kmh SSE 4.0 mph6.4 kmh 30.25 in1024.4 mb 0.00 in0.0 mm 0.00 in0.0 mm 0.00 in0.0 mm
03:14 AM 20.0°F-6.7°C 18.1°F-7.7°C 92% 2.0 mph SSE3.2 kmh SSE 4.0 mph6.4 kmh 30.25 in1024.4 mb 0.00 in0.0 mm 0.00 in0.0 mm 0.00 in0.0 mm
03:13 AM 20.0°F-6.7°C 18.1°F-7.7°C 92% 2.0 mph SSE3.2 kmh SSE 4.0 mph6.4 kmh 30.25 in1024.4 mb 0.00 in0.0 mm 0.00 in0.0 mm 0.00 in0.0 mm
03:12 AM 20.0°F-6.7°C 18.1°F-7.7°C 92% 2.0 mph SSE3.2 kmh SSE 4.0 mph6.4 kmh 30.25 in1024.4 mb 0.00 in0.0 mm 0.00 in0.0 mm 0.00 in0.0 mm
03:11 AM 20.0°F-6.7°C 18.1°F-7.7°C 92% 2.0 mph SSE3.2 kmh SSE 4.0 mph6.4 kmh 30.25 in1024.4 mb 0.00 in0.0 mm 0.00 in0.0 mm 0.00 in0.0 mm
03:10 AM 19.9°F-6.7°C 18.0°F-7.8°C 92% 2.0 mph SSE3.2 kmh SSE 4.0 mph6.4 kmh 30.25 in1024.4 mb 0.00 in0.0 mm 0.00 in0.0 mm 0.00 in0.0 mm
03:09 AM 19.8°F-6.8°C 17.9°F-7.8°C 92% 2.0 mph SSE3.2 kmh SSE 4.0 mph6.4 kmh 30.25 in1024.4 mb 0.00 in0.0 mm 0.00 in0.0 mm 0.00 in0.0 mm
03:08 AM 19.8°F-6.8°C 17.9°F-7.8°C 92% 2.0 mph SSE3.2 kmh SSE 4.0 mph6.4 kmh 30.25 in1024.4 mb 0.00 in0.0 mm 0.00 in0.0 mm 0.00 in0.0 mm
03:07 AM 19.7°F-6.8°C 17.5°F-8.1°C 91% 2.0 mph SSE3.2 kmh SSE 4.0 mph6.4 kmh 30.25 in1024.4 mb 0.00 in0.0 mm 0.00 in0.0 mm 0.00 in0.0 mm
03:06 AM 19.7°F-6.8°C 17.5°F-8.1°C 91% 3.0 mph SSE4.8 kmh SSE 4.0 mph6.4 kmh 30.24 in1024.0 mb 0.00 in0.0 mm 0.00 in0.0 mm 0.00 in0.0 mm
03:05 AM 19.7°F-6.8°C 17.5°F-8.1°C 91% 3.0 mph SSE4.8 kmh SSE 4.0 mph6.4 kmh 30.24 in1024.0 mb 0.00 in0.0 mm 0.00 in0.0 mm 0.00 in0.0 mm
03:04 AM 19.7°F-6.8°C 17.5°F-8.1°C 91% 3.0 mph SSE4.8 kmh SSE 4.0 mph6.4 kmh 30.24 in1024.0 mb 0.00 in0.0 mm 0.00 in0.0 mm 0.00 in0.0 mm
03:03 AM 19.7°F-6.8°C 17.5°F-8.1°C 91% 3.0 mph SSE4.8 kmh SSE 4.0 mph6.4 kmh 30.24 in1024.0 mb 0.00 in0.0 mm 0.00 in0.0 mm 0.00 in0.0 mm
03:02 AM 19.7°F-6.8°C 17.5°F-8.1°C 91% 3.0 mph SSE4.8 kmh SSE 4.0 mph6.4 kmh 30.24 in1024.0 mb 0.00 in0.0 mm 0.00 in0.0 mm 0.00 in0.0 mm
03:01 AM 19.7°F-6.8°C 17.5°F-8.1°C 91% 3.0 mph SSE4.8 kmh SSE 4.0 mph6.4 kmh 30.24 in1024.0 mb 0.00 in0.0 mm 0.00 in0.0 mm 0.00 in0.0 mm
03:00 AM 19.7°F-6.8°C 17.5°F-8.1°C 91% 3.0 mph SSE4.8 kmh SSE 3.0 mph4.8 kmh 30.24 in1024.0 mb 0.00 in0.0 mm 0.00 in0.0 mm 0.00 in0.0 mm
02:59 AM 19.7°F-6.8°C 17.5°F-8.1°C 91% 2.0 mph SSE3.2 kmh SSE 6.0 mph9.7 kmh 30.25 in1024.4 mb 0.00 in0.0 mm 0.00 in0.0 mm 0.00 in0.0 mm
02:58 AM 19.7°F-6.8°C 17.5°F-8.1°C 91% 2.0 mph SSE3.2 kmh SSE 6.0 mph9.7 kmh 30.25 in1024.4 mb 0.00 in0.0 mm 0.00 in0.0 mm 0.00 in0.0 mm
02:57 AM 19.7°F-6.8°C 17.5°F-8.1°C 91% 2.0 mph SSE3.2 kmh SSE 6.0 mph9.7 kmh 30.25 in1024.4 mb 0.00 in0.0 mm 0.00 in0.0 mm 0.00 in0.0 mm
02:56 AM 19.8°F-6.8°C 17.6°F-8.0°C 91% 2.0 mph SSE3.2 kmh SSE 6.0 mph9.7 kmh 30.25 in1024.4 mb 0.00 in0.0 mm 0.00 in0.0 mm 0.00 in0.0 mm
02:55 AM 19.8°F-6.8°C 17.6°F-8.0°C 91% 2.0 mph SSE3.2 kmh SSE 6.0 mph9.7 kmh 30.25 in1024.4 mb 0.00 in0.0 mm 0.00 in0.0 mm 0.00 in0.0 mm
02:54 AM 19.8°F-6.8°C 17.6°F-8.0°C 91% 3.0 mph SSE4.8 kmh SSE 6.0 mph9.7 kmh 30.25 in1024.4 mb 0.00 in0.0 mm 0.00 in0.0 mm 0.00 in0.0 mm
02:53 AM 19.9°F-6.7°C 17.7°F-7.9°C 91% 2.0 mph SSE3.2 kmh SSE 6.0 mph9.7 kmh 30.25 in1024.4 mb 0.00 in0.0 mm 0.00 in0.0 mm 0.00 in0.0 mm
02:52 AM 20.0°F-6.7°C 17.8°F-7.9°C 91% 3.0 mph SSE4.8 kmh SSE 6.0 mph9.7 kmh 30.25 in1024.4 mb 0.00 in0.0 mm 0.00 in0.0 mm 0.00 in0.0 mm
02:51 AM 20.0°F-6.7°C 17.8°F-7.9°C 91% 3.0 mph SSE4.8 kmh SSE 6.0 mph9.7 kmh 30.25 in1024.4 mb 0.00 in0.0 mm 0.00 in0.0 mm 0.00 in0.0 mm
02:50 AM 20.1°F-6.6°C 17.9°F-7.8°C 91% 4.0 mph SSE6.4 kmh SSE 6.0 mph9.7 kmh 30.25 in1024.4 mb 0.00 in0.0 mm 0.00 in0.0 mm 0.00 in0.0 mm
02:49 AM 20.1°F-6.6°C 17.9°F-7.8°C 91% 4.0 mph SSE6.4 kmh SSE 6.0 mph9.7 kmh 30.25 in1024.4 mb 0.00 in0.0 mm 0.00 in0.0 mm 0.00 in0.0 mm
02:48 AM 20.1°F-6.6°C 17.9°F-7.8°C 91% 4.0 mph SSE6.4 kmh SSE 6.0 mph9.7 kmh 30.25 in1024.4 mb 0.00 in0.0 mm 0.00 in0.0 mm 0.00 in0.0 mm
02:47 AM 20.1°F-6.6°C 17.9°F-7.8°C 91% 3.0 mph SSE4.8 kmh SSE 6.0 mph9.7 kmh 30.25 in1024.4 mb 0.00 in0.0 mm 0.00 in0.0 mm 0.00 in0.0 mm
02:46 AM 20.1°F-6.6°C 17.9°F-7.8°C 91% 2.0 mph SSE3.2 kmh SSE 6.0 mph9.7 kmh 30.25 in1024.4 mb 0.00 in0.0 mm 0.00 in0.0 mm 0.00 in0.0 mm
02:45 AM 20.1°F-6.6°C 17.9°F-7.8°C 91% 3.0 mph SSE4.8 kmh SSE 6.0 mph9.7 kmh 30.25 in1024.4 mb 0.00 in0.0 mm 0.00 in0.0 mm 0.00 in0.0 mm
02:44 AM 20.1°F-6.6°C 17.9°F-7.8°C 91% 2.0 mph SSE3.2 kmh SSE 6.0 mph9.7 kmh 30.25 in1024.4 mb 0.00 in0.0 mm 0.00 in0.0 mm 0.00 in0.0 mm
02:43 AM 20.1°F-6.6°C 17.9°F-7.8°C 91% 2.0 mph SSE3.2 kmh SSE 6.0 mph9.7 kmh 30.25 in1024.4 mb 0.00 in0.0 mm 0.00 in0.0 mm 0.00 in0.0 mm
02:42 AM 20.1°F-6.6°C 17.9°F-7.8°C 91% 3.0 mph SSE4.8 kmh SSE 6.0 mph9.7 kmh 30.25 in1024.4 mb 0.00 in0.0 mm 0.00 in0.0 mm 0.00 in0.0 mm
02:41 AM 20.1°F-6.6°C 17.9°F-7.8°C 91% 3.0 mph SSE4.8 kmh SSE 6.0 mph9.7 kmh 30.25 in1024.4 mb 0.00 in0.0 mm 0.00 in0.0 mm 0.00 in0.0 mm
02:40 AM 20.2°F-6.6°C 18.0°F-7.8°C 91% 4.0 mph SSE6.4 kmh SSE 6.0 mph9.7 kmh 30.25 in1024.4 mb 0.00 in0.0 mm 0.00 in0.0 mm 0.00 in0.0 mm
02:39 AM 20.1°F-6.6°C 17.9°F-7.8°C 91% 5.0 mph SSE8.0 kmh SSE 6.0 mph9.7 kmh 30.25 in1024.4 mb 0.00 in0.0 mm 0.00 in0.0 mm 0.00 in0.0 mm
02:38 AM 20.1°F-6.6°C 17.9°F-7.8°C 91% 5.0 mph SSE8.0 kmh SSE 6.0 mph9.7 kmh 30.25 in1024.4 mb 0.00 in0.0 mm 0.00 in0.0 mm 0.00 in0.0 mm
02:37 AM 20.1°F-6.6°C 17.9°F-7.8°C 91% 4.0 mph SSE6.4 kmh SSE 6.0 mph9.7 kmh 30.25 in1024.4 mb 0.00 in0.0 mm 0.00 in0.0 mm 0.00 in0.0 mm
02:36 AM 20.1°F-6.6°C 17.9°F-7.8°C 91% 5.0 mph SSE8.0 kmh SSE 6.0 mph9.7 kmh 30.25 in1024.4 mb 0.00 in0.0 mm 0.00 in0.0 mm 0.00 in0.0 mm
02:35 AM 20.1°F-6.6°C 17.9°F-7.8°C 91% 6.0 mph SSE9.7 kmh SSE 6.0 mph9.7 kmh 30.25 in1024.4 mb 0.00 in0.0 mm 0.00 in0.0 mm 0.00 in0.0 mm
02:34 AM 20.1°F-6.6°C 17.9°F-7.8°C 91% 5.0 mph SSE8.0 kmh SSE 5.0 mph8.0 kmh 30.25 in1024.4 mb 0.00 in0.0 mm 0.00 in0.0 mm 0.00 in0.0 mm
02:33 AM 20.1°F-6.6°C 17.9°F-7.8°C 91% 4.0 mph SSE6.4 kmh SSE 5.0 mph8.0 kmh 30.25 in1024.4 mb 0.00 in0.0 mm 0.00 in0.0 mm 0.00 in0.0 mm
02:32 AM 20.1°F-6.6°C 17.9°F-7.8°C 91% 4.0 mph SSE6.4 kmh SSE 4.0 mph6.4 kmh 30.25 in1024.4 mb 0.00 in0.0 mm 0.00 in0.0 mm 0.00 in0.0 mm
02:31 AM 20.1°F-6.6°C 17.9°F-7.8°C 91% 3.0 mph SSE4.8 kmh SSE 4.0 mph6.4 kmh 30.25 in1024.4 mb 0.00 in0.0 mm 0.00 in0.0 mm 0.00 in0.0 mm
02:30 AM 20.2°F-6.6°C 18.0°F-7.8°C 91% 4.0 mph SSE6.4 kmh SSE 4.0 mph6.4 kmh 30.25 in1024.4 mb 0.00 in0.0 mm 0.00 in0.0 mm 0.00 in0.0 mm
02:29 AM 20.2°F-6.6°C 18.0°F-7.8°C 91% 4.0 mph SSE6.4 kmh SSE 6.0 mph9.7 kmh 30.25 in1024.4 mb 0.00 in0.0 mm 0.00 in0.0 mm 0.00 in0.0 mm
02:28 AM 20.2°F-6.6°C 18.0°F-7.8°C 91% 3.0 mph SSE4.8 kmh SSE 6.0 mph9.7 kmh 30.25 in1024.4 mb 0.00 in0.0 mm 0.00 in0.0 mm 0.00 in0.0 mm
02:27 AM 20.2°F-6.6°C 18.0°F-7.8°C 91% 3.0 mph SSE4.8 kmh SSE 6.0 mph9.7 kmh 30.25 in1024.4 mb 0.00 in0.0 mm 0.00 in0.0 mm 0.00 in0.0 mm
02:26 AM 20.2°F-6.6°C 18.0°F-7.8°C 91% 4.0 mph SSE6.4 kmh SSE 6.0 mph9.7 kmh 30.25 in1024.4 mb 0.00 in0.0 mm 0.00 in0.0 mm 0.00 in0.0 mm
02:25 AM 20.2°F-6.6°C 18.0°F-7.8°C 91% 4.0 mph SSE6.4 kmh SSE 6.0 mph9.7 kmh 30.25 in1024.4 mb 0.00 in0.0 mm 0.00 in0.0 mm 0.00 in0.0 mm
02:24 AM 20.2°F-6.6°C 18.0°F-7.8°C 91% 3.0 mph SSE4.8 kmh SSE 6.0 mph9.7 kmh 30.25 in1024.4 mb 0.00 in0.0 mm 0.00 in0.0 mm 0.00 in0.0 mm
02:23 AM 20.2°F-6.6°C 18.0°F-7.8°C 91% 3.0 mph SSE4.8 kmh SSE 6.0 mph9.7 kmh 30.25 in1024.4 mb 0.00 in0.0 mm 0.00 in0.0 mm 0.00 in0.0 mm
02:22 AM 20.2°F-6.6°C 18.0°F-7.8°C 91% 3.0 mph SSE4.8 kmh SSE 6.0 mph9.7 kmh 30.25 in1024.4 mb 0.00 in0.0 mm 0.00 in0.0 mm 0.00 in0.0 mm
02:21 AM 20.2°F-6.6°C 18.0°F-7.8°C 91% 3.0 mph SSE4.8 kmh SSE 6.0 mph9.7 kmh 30.25 in1024.4 mb 0.00 in0.0 mm 0.00 in0.0 mm 0.00 in0.0 mm
02:20 AM 20.3°F-6.5°C 18.1°F-7.7°C 91% 4.0 mph SSE6.4 kmh SSE 6.0 mph9.7 kmh 30.25 in1024.4 mb 0.00 in0.0 mm 0.00 in0.0 mm 0.00 in0.0 mm
02:19 AM 20.3°F-6.5°C 18.1°F-7.7°C 91% 4.0 mph SSE6.4 kmh SSE 6.0 mph9.7 kmh 30.25 in1024.4 mb 0.00 in0.0 mm 0.00 in0.0 mm 0.00 in0.0 mm
02:18 AM 20.3°F-6.5°C 18.1°F-7.7°C 91% 4.0 mph SSE6.4 kmh SSE 6.0 mph9.7 kmh 30.25 in1024.4 mb 0.00 in0.0 mm 0.00 in0.0 mm 0.00 in0.0 mm
02:17 AM 20.4°F-6.4°C 18.2°F-7.7°C 91% 4.0 mph SSE6.4 kmh SSE 6.0 mph9.7 kmh 30.25 in1024.4 mb 0.00 in0.0 mm 0.00 in0.0 mm 0.00 in0.0 mm
02:16 AM 20.4°F-6.4°C 18.2°F-7.7°C 91% 5.0 mph SSE8.0 kmh SSE 6.0 mph9.7 kmh 30.25 in1024.4 mb 0.00 in0.0 mm 0.00 in0.0 mm 0.00 in0.0 mm
02:15 AM 20.5°F-6.4°C 18.3°F-7.6°C 91% 5.0 mph SSE8.0 kmh SSE 6.0 mph9.7 kmh 30.25 in1024.4 mb 0.00 in0.0 mm 0.00 in0.0 mm 0.00 in0.0 mm
02:14 AM 20.6°F-6.3°C 18.4°F-7.6°C 91% 5.0 mph SSE8.0 kmh SSE 6.0 mph9.7 kmh 30.25 in1024.4 mb 0.00 in0.0 mm 0.00 in0.0 mm 0.00 in0.0 mm
02:13 AM 20.6°F-6.3°C 18.4°F-7.6°C 91% 4.0 mph SSE6.4 kmh SSE 6.0 mph9.7 kmh 30.25 in1024.4 mb 0.00 in0.0 mm 0.00 in0.0 mm 0.00 in0.0 mm
02:12 AM 20.7°F-6.3°C 18.5°F-7.5°C 91% 3.0 mph SSE4.8 kmh SSE 6.0 mph9.7 kmh 30.25 in1024.4 mb 0.00 in0.0 mm 0.00 in0.0 mm 0.00 in0.0 mm
02:11 AM 20.7°F-6.3°C 18.5°F-7.5°C 91% 4.0 mph SSE6.4 kmh SSE 6.0 mph9.7 kmh 30.25 in1024.4 mb 0.00 in0.0 mm 0.00 in0.0 mm 0.00 in0.0 mm
02:10 AM 20.8°F-6.2°C 18.6°F-7.4°C 91% 4.0 mph SSE6.4 kmh SSE 6.0 mph9.7 kmh 30.25 in1024.4 mb 0.00 in0.0 mm 0.00 in0.0 mm 0.00 in0.0 mm
02:09 AM 20.8°F-6.2°C 18.6°F-7.4°C 91% 5.0 mph SSE8.0 kmh SSE 6.0 mph9.7 kmh 30.25 in1024.4 mb 0.00 in0.0 mm 0.00 in0.0 mm 0.00 in0.0 mm
02:08 AM 20.9°F-6.2°C 18.7°F-7.4°C 91% 4.0 mph SSE6.4 kmh SSE 6.0 mph9.7 kmh 30.25 in1024.4 mb 0.00 in0.0 mm 0.00 in0.0 mm 0.00 in0.0 mm
02:07 AM 20.9°F-6.2°C 18.7°F-7.4°C 91% 4.0 mph SSE6.4 kmh SSE 6.0 mph9.7 kmh 30.25 in1024.4 mb 0.00 in0.0 mm 0.00 in0.0 mm 0.00 in0.0 mm
02:06 AM 20.9°F-6.2°C 18.7°F-7.4°C 91% 5.0 mph SSE8.0 kmh SSE 6.0 mph9.7 kmh 30.25 in1024.4 mb 0.00 in0.0 mm 0.00 in0.0 mm 0.00 in0.0 mm
02:05 AM 20.9°F-6.2°C 18.7°F-7.4°C 91% 4.0 mph SSE6.4 kmh SSE 6.0 mph9.7 kmh 30.25 in1024.4 mb 0.00 in0.0 mm 0.00 in0.0 mm 0.00 in0.0 mm
02:04 AM 20.9°F-6.2°C 18.7°F-7.4°C 91% 5.0 mph SSE8.0 kmh SSE 6.0 mph9.7 kmh 30.25 in1024.4 mb 0.00 in0.0 mm 0.00 in0.0 mm 0.00 in0.0 mm
02:03 AM 21.0°F-6.1°C 18.8°F-7.3°C 91% 5.0 mph SSE8.0 kmh SSE 6.0 mph9.7 kmh 30.25 in1024.4 mb 0.00 in0.0 mm 0.00 in0.0 mm 0.00 in0.0 mm
02:02 AM 21.0°F-6.1°C 18.8°F-7.3°C 91% 5.0 mph SSE8.0 kmh SSE 6.0 mph9.7 kmh 30.25 in1024.4 mb 0.00 in0.0 mm 0.00 in0.0 mm 0.00 in0.0 mm
02:01 AM 21.0°F-6.1°C 18.5°F-7.5°C 90% 5.0 mph SSE8.0 kmh SSE 6.0 mph9.7 kmh 30.25 in1024.4 mb 0.00 in0.0 mm 0.00 in0.0 mm 0.00 in0.0 mm
02:00 AM 20.9°F-6.2°C 18.4°F-7.6°C 90% 5.0 mph SSE8.0 kmh SSE 6.0 mph9.7 kmh 30.25 in1024.4 mb 0.00 in0.0 mm 0.00 in0.0 mm 0.00 in0.0 mm
01:59 AM 20.9°F-6.2°C 18.7°F-7.4°C 91% 5.0 mph SSE8.0 kmh SSE 6.0 mph9.7 kmh 30.25 in1024.4 mb 0.00 in0.0 mm 0.00 in0.0 mm 0.00 in0.0 mm
01:58 AM 21.1°F-6.1°C 18.6°F-7.4°C 90% 4.0 mph SSE6.4 kmh SSE 6.0 mph9.7 kmh 30.25 in1024.4 mb 0.00 in0.0 mm 0.00 in0.0 mm 0.00 in0.0 mm
01:57 AM 21.1°F-6.1°C 18.6°F-7.4°C 90% 4.0 mph SSE6.4 kmh SSE 6.0 mph9.7 kmh 30.25 in1024.4 mb 0.00 in0.0 mm 0.00 in0.0 mm 0.00 in0.0 mm
01:56 AM 21.1°F-6.1°C 18.6°F-7.4°C 90% 4.0 mph SSE6.4 kmh SSE 6.0 mph9.7 kmh 30.25 in1024.4 mb 0.00 in0.0 mm 0.00 in0.0 mm 0.00 in0.0 mm
01:55 AM 21.1°F-6.1°C 18.6°F-7.4°C 90% 4.0 mph SSE6.4 kmh SSE 6.0 mph9.7 kmh 30.25 in1024.4 mb 0.00 in0.0 mm 0.00 in0.0 mm 0.00 in0.0 mm
01:54 AM 21.1°F-6.1°C 18.6°F-7.4°C 90% 4.0 mph SSE6.4 kmh SSE 6.0 mph9.7 kmh 30.25 in1024.4 mb 0.00 in0.0 mm 0.00 in0.0 mm 0.00 in0.0 mm
01:53 AM 21.1°F-6.1°C 18.6°F-7.4°C 90% 4.0 mph SSE6.4 kmh SSE 6.0 mph9.7 kmh 30.25 in1024.4 mb 0.00 in0.0 mm 0.00 in0.0 mm 0.00 in0.0 mm
01:52 AM 21.1°F-6.1°C 18.6°F-7.4°C 90% 4.0 mph SSE6.4 kmh SSE 6.0 mph9.7 kmh 30.25 in1024.4 mb 0.00 in0.0 mm 0.00 in0.0 mm 0.00 in0.0 mm
01:51 AM 21.1°F-6.1°C 18.6°F-7.4°C 90% 5.0 mph SSE8.0 kmh SSE 6.0 mph9.7 kmh 30.25 in1024.4 mb 0.00 in0.0 mm 0.00 in0.0 mm 0.00 in0.0 mm
01:50 AM 21.2°F-6.0°C 18.7°F-7.4°C 90% 5.0 mph SSE8.0 kmh SSE 6.0 mph9.7 kmh 30.25 in1024.4 mb 0.00 in0.0 mm 0.00 in0.0 mm 0.00 in0.0 mm
01:49 AM 21.2°F-6.0°C 18.7°F-7.4°C 90% 4.0 mph SSE6.4 kmh SSE 6.0 mph9.7 kmh 30.25 in1024.4 mb 0.00 in0.0 mm 0.00 in0.0 mm 0.00 in0.0 mm
01:48 AM 21.2°F-6.0°C 18.7°F-7.4°C 90% 4.0 mph SSE6.4 kmh SSE 6.0 mph9.7 kmh 30.25 in1024.4 mb 0.00 in0.0 mm 0.00 in0.0 mm 0.00 in0.0 mm
01:47 AM 21.2°F-6.0°C 18.7°F-7.4°C 90% 4.0 mph SSE6.4 kmh SSE 6.0 mph9.7 kmh 30.25 in1024.4 mb 0.00 in0.0 mm 0.00 in0.0 mm 0.00 in0.0 mm
01:46 AM 21.2°F-6.0°C 18.7°F-7.4°C 90% 4.0 mph SSE6.4 kmh SSE 6.0 mph9.7 kmh 30.25 in1024.4 mb 0.00 in0.0 mm 0.00 in0.0 mm 0.00 in0.0 mm
01:45 AM 21.2°F-6.0°C 18.7°F-7.4°C 90% 4.0 mph SSE6.4 kmh SSE 6.0 mph9.7 kmh 30.25 in1024.4 mb 0.00 in0.0 mm 0.00 in0.0 mm 0.00 in0.0 mm
01:44 AM 21.3°F-5.9°C 18.8°F-7.3°C 90% 5.0 mph SSE8.0 kmh SSE 6.0 mph9.7 kmh 30.25 in1024.4 mb 0.00 in0.0 mm 0.00 in0.0 mm 0.00 in0.0 mm
01:43 AM 21.3°F-5.9°C 18.8°F-7.3°C 90% 4.0 mph SSE6.4 kmh SSE 6.0 mph9.7 kmh 30.25 in1024.4 mb 0.00 in0.0 mm 0.00 in0.0 mm 0.00 in0.0 mm
01:42 AM 21.3°F-5.9°C 18.8°F-7.3°C 90% 5.0 mph SSE8.0 kmh SSE 6.0 mph9.7 kmh 30.25 in1024.4 mb 0.00 in0.0 mm 0.00 in0.0 mm 0.00 in0.0 mm
01:41 AM 21.3°F-5.9°C 18.8°F-7.3°C 90% 5.0 mph SSE8.0 kmh SSE 6.0 mph9.7 kmh 30.25 in1024.4 mb 0.00 in0.0 mm 0.00 in0.0 mm 0.00 in0.0 mm
01:40 AM 21.3°F-5.9°C 18.8°F-7.3°C 90% 5.0 mph S8.0 kmh S 5.0 mph8.0 kmh 30.25 in1024.4 mb 0.00 in0.0 mm 0.00 in0.0 mm 0.00 in0.0 mm
01:39 AM 21.3°F-5.9°C 18.8°F-7.3°C 90% 4.0 mph S6.4 kmh S 5.0 mph8.0 kmh 30.25 in1024.4 mb 0.00 in0.0 mm 0.00 in0.0 mm 0.00 in0.0 mm
01:38 AM 21.4°F-5.9°C 18.9°F-7.3°C 90% 5.0 mph S8.0 kmh S 5.0 mph8.0 kmh 30.25 in1024.4 mb 0.00 in0.0 mm 0.00 in0.0 mm 0.00 in0.0 mm
01:37 AM 21.4°F-5.9°C 18.9°F-7.3°C 90% 4.0 mph S6.4 kmh S 5.0 mph8.0 kmh 30.25 in1024.4 mb 0.00 in0.0 mm 0.00 in0.0 mm 0.00 in0.0 mm
01:36 AM 21.5°F-5.8°C 18.8°F-7.3°C 89% 4.0 mph S6.4 kmh S 5.0 mph8.0 kmh 30.25 in1024.4 mb 0.00 in0.0 mm 0.00 in0.0 mm 0.00 in0.0 mm
01:35 AM 21.6°F-5.8°C 18.9°F-7.3°C 89% 4.0 mph S6.4 kmh S 5.0 mph8.0 kmh 30.25 in1024.4 mb 0.00 in0.0 mm 0.00 in0.0 mm 0.00 in0.0 mm
01:34 AM 21.7°F-5.7°C 19.0°F-7.2°C 89% 4.0 mph S6.4 kmh S 5.0 mph8.0 kmh 30.25 in1024.4 mb 0.00 in0.0 mm 0.00 in0.0 mm 0.00 in0.0 mm
01:33 AM 21.8°F-5.7°C 19.1°F-7.2°C 89% 4.0 mph S6.4 kmh S 5.0 mph8.0 kmh 30.25 in1024.4 mb 0.00 in0.0 mm 0.00 in0.0 mm 0.00 in0.0 mm
01:32 AM 21.9°F-5.6°C 19.2°F-7.1°C 89% 5.0 mph S8.0 kmh S 5.0 mph8.0 kmh 30.25 in1024.4 mb 0.00 in0.0 mm 0.00 in0.0 mm 0.00 in0.0 mm
01:31 AM 22.0°F-5.6°C 19.3°F-7.1°C 89% 4.0 mph S6.4 kmh S 5.0 mph8.0 kmh 30.25 in1024.4 mb 0.00 in0.0 mm 0.00 in0.0 mm 0.00 in0.0 mm
01:30 AM 22.1°F-5.5°C 19.4°F-7.0°C 89% 4.0 mph S6.4 kmh S 4.0 mph6.4 kmh 30.25 in1024.4 mb 0.00 in0.0 mm 0.00 in0.0 mm 0.00 in0.0 mm
01:29 AM 22.2°F-5.4°C 19.5°F-6.9°C 89% 4.0 mph S6.4 kmh S 10.0 mph16.1 kmh 30.25 in1024.4 mb 0.00 in0.0 mm 0.00 in0.0 mm 0.00 in0.0 mm
01:28 AM 22.3°F-5.4°C 19.8°F-6.8°C 90% 4.0 mph S6.4 kmh S 10.0 mph16.1 kmh 30.25 in1024.4 mb 0.00 in0.0 mm 0.00 in0.0 mm 0.00 in0.0 mm
01:27 AM 22.3°F-5.4°C 19.8°F-6.8°C 90% 4.0 mph S6.4 kmh S 10.0 mph16.1 kmh 30.25 in1024.4 mb 0.00 in0.0 mm 0.00 in0.0 mm 0.00 in0.0 mm
01:26 AM 22.3°F-5.4°C 19.8°F-6.8°C 90% 4.0 mph S6.4 kmh S 10.0 mph16.1 kmh 30.25 in1024.4 mb 0.00 in0.0 mm 0.00 in0.0 mm 0.00 in0.0 mm
01:25 AM 22.4°F-5.3°C 19.9°F-6.7°C 90% 4.0 mph S6.4 kmh S 10.0 mph16.1 kmh 30.25 in1024.4 mb 0.00 in0.0 mm 0.00 in0.0 mm 0.00 in0.0 mm
01:24 AM 22.4°F-5.3°C 19.9°F-6.7°C 90% 4.0 mph S6.4 kmh S 10.0 mph16.1 kmh 30.25 in1024.4 mb 0.00 in0.0 mm 0.00 in0.0 mm 0.00 in0.0 mm
01:23 AM 22.4°F-5.3°C 19.7°F-6.8°C 89% 4.0 mph S6.4 kmh S 10.0 mph16.1 kmh 30.25 in1024.4 mb 0.00 in0.0 mm 0.00 in0.0 mm 0.00 in0.0 mm
01:22 AM 22.4°F-5.3°C 19.9°F-6.7°C 90% 4.0 mph S6.4 kmh S 10.0 mph16.1 kmh 30.25 in1024.4 mb 0.00 in0.0 mm 0.00 in0.0 mm 0.00 in0.0 mm
01:21 AM 22.5°F-5.3°C 20.0°F-6.7°C 90% 3.0 mph S4.8 kmh S 10.0 mph16.1 kmh 30.25 in1024.4 mb 0.00 in0.0 mm 0.00 in0.0 mm 0.00 in0.0 mm
01:20 AM 22.5°F-5.3°C 20.0°F-6.7°C 90% 7.0 mph S11.3 kmh S 10.0 mph16.1 kmh 30.25 in1024.4 mb 0.00 in0.0 mm 0.00 in0.0 mm 0.00 in0.0 mm
01:19 AM 22.5°F-5.3°C 20.0°F-6.7°C 90% 5.0 mph S8.0 kmh S 10.0 mph16.1 kmh 30.25 in1024.4 mb 0.00 in0.0 mm 0.00 in0.0 mm 0.00 in0.0 mm
01:18 AM 22.5°F-5.3°C 20.0°F-6.7°C 90% 5.0 mph S8.0 kmh S 10.0 mph16.1 kmh 30.25 in1024.4 mb 0.00 in0.0 mm 0.00 in0.0 mm 0.00 in0.0 mm
01:17 AM 22.5°F-5.3°C 20.0°F-6.7°C 90% 6.0 mph S9.7 kmh S 10.0 mph16.1 kmh 30.25 in1024.4 mb 0.00 in0.0 mm 0.00 in0.0 mm 0.00 in0.0 mm
01:16 AM 22.5°F-5.3°C 20.0°F-6.7°C 90% 7.0 mph SSE11.3 kmh SSE 10.0 mph16.1 kmh 30.25 in1024.4 mb 0.00 in0.0 mm 0.00 in0.0 mm 0.00 in0.0 mm
01:15 AM 22.5°F-5.3°C 20.0°F-6.7°C 90% 6.0 mph S9.7 kmh S 10.0 mph16.1 kmh 30.25 in1024.4 mb 0.00 in0.0 mm 0.00 in0.0 mm 0.00 in0.0 mm
01:14 AM 22.5°F-5.3°C 20.0°F-6.7°C 90% 7.0 mph S11.3 kmh S 10.0 mph16.1 kmh 30.25 in1024.4 mb 0.00 in0.0 mm 0.00 in0.0 mm 0.00 in0.0 mm
01:13 AM 22.4°F-5.3°C 19.9°F-6.7°C 90% 7.0 mph S11.3 kmh S 10.0 mph16.1 kmh 30.25 in1024.4 mb 0.00 in0.0 mm 0.00 in0.0 mm 0.00 in0.0 mm
01:12 AM 22.4°F-5.3°C 19.9°F-6.7°C 90% 7.0 mph S11.3 kmh S 10.0 mph16.1 kmh 30.25 in1024.4 mb 0.00 in0.0 mm 0.00 in0.0 mm 0.00 in0.0 mm
01:11 AM 22.4°F-5.3°C 19.9°F-6.7°C 90% 8.0 mph S12.9 kmh S 10.0 mph16.1 kmh 30.25 in1024.4 mb 0.00 in0.0 mm 0.00 in0.0 mm 0.00 in0.0 mm
01:10 AM 22.4°F-5.3°C 19.9°F-6.7°C 90% 6.0 mph S9.7 kmh S 10.0 mph16.1 kmh 30.25 in1024.4 mb 0.00 in0.0 mm 0.00 in0.0 mm 0.00 in0.0 mm
01:09 AM 22.3°F-5.4°C 19.8°F-6.8°C 90% 5.0 mph S8.0 kmh S 10.0 mph16.1 kmh 30.25 in1024.4 mb 0.00 in0.0 mm 0.00 in0.0 mm 0.00 in0.0 mm
01:08 AM 22.3°F-5.4°C 19.8°F-6.8°C 90% 6.0 mph S9.7 kmh S 10.0 mph16.1 kmh 30.25 in1024.4 mb 0.00 in0.0 mm 0.00 in0.0 mm 0.00 in0.0 mm
01:07 AM 22.2°F-5.4°C 19.7°F-6.8°C 90% 7.0 mph S11.3 kmh S 10.0 mph16.1 kmh 30.25 in1024.4 mb 0.00 in0.0 mm 0.00 in0.0 mm 0.00 in0.0 mm
01:06 AM 22.2°F-5.4°C 19.7°F-6.8°C 90% 8.0 mph S12.9 kmh S 10.0 mph16.1 kmh 30.25 in1024.4 mb 0.00 in0.0 mm 0.00 in0.0 mm 0.00 in0.0 mm
01:05 AM 22.2°F-5.4°C 19.7°F-6.8°C 90% 6.0 mph S9.7 kmh S 10.0 mph16.1 kmh 30.25 in1024.4 mb 0.00 in0.0 mm 0.00 in0.0 mm 0.00 in0.0 mm
01:04 AM 22.2°F-5.4°C 19.7°F-6.8°C 90% 7.0 mph S11.3 kmh S 10.0 mph16.1 kmh 30.25 in1024.4 mb 0.00 in0.0 mm 0.00 in0.0 mm 0.00 in0.0 mm
01:03 AM 22.2°F-5.4°C 19.7°F-6.8°C 90% 7.0 mph S11.3 kmh S 10.0 mph16.1 kmh 30.25 in1024.4 mb 0.00 in0.0 mm 0.00 in0.0 mm 0.00 in0.0 mm
01:02 AM 22.1°F-5.5°C 19.6°F-6.9°C 90% 7.0 mph S11.3 kmh S 10.0 mph16.1 kmh 30.25 in1024.4 mb 0.00 in0.0 mm 0.00 in0.0 mm 0.00 in0.0 mm
01:01 AM 22.1°F-5.5°C 19.6°F-6.9°C 90% 8.0 mph S12.9 kmh S 10.0 mph16.1 kmh 30.25 in1024.4 mb 0.00 in0.0 mm 0.00 in0.0 mm 0.00 in0.0 mm
01:00 AM 22.1°F-5.5°C 19.6°F-6.9°C 90% 9.0 mph S14.5 kmh S 9.0 mph14.5 kmh 30.25 in1024.4 mb 0.00 in0.0 mm 0.00 in0.0 mm 0.00 in0.0 mm
12:59 AM 22.1°F-5.5°C 19.6°F-6.9°C 90% 7.0 mph S11.3 kmh S 11.0 mph17.7 kmh 30.25 in1024.4 mb 0.00 in0.0 mm 0.00 in0.0 mm 0.00 in0.0 mm
12:58 AM 22.1°F-5.5°C 19.6°F-6.9°C 90% 8.0 mph S12.9 kmh S 11.0 mph17.7 kmh 30.25 in1024.4 mb 0.00 in0.0 mm 0.00 in0.0 mm 0.00 in0.0 mm
12:57 AM 22.0°F-5.6°C 19.5°F-6.9°C 90% 7.0 mph S11.3 kmh S 11.0 mph17.7 kmh 30.25 in1024.4 mb 0.00 in0.0 mm 0.00 in0.0 mm 0.00 in0.0 mm
12:56 AM 22.0°F-5.6°C 19.5°F-6.9°C 90% 7.0 mph S11.3 kmh S 11.0 mph17.7 kmh 30.25 in1024.4 mb 0.00 in0.0 mm 0.00 in0.0 mm 0.00 in0.0 mm
12:55 AM 22.0°F-5.6°C 19.5°F-6.9°C 90% 7.0 mph S11.3 kmh S 11.0 mph17.7 kmh 30.25 in1024.4 mb 0.00 in0.0 mm 0.00 in0.0 mm 0.00 in0.0 mm
12:54 AM 22.1°F-5.5°C 19.6°F-6.9°C 90% 8.0 mph S12.9 kmh S 11.0 mph17.7 kmh 30.25 in1024.4 mb 0.00 in0.0 mm 0.00 in0.0 mm 0.00 in0.0 mm
12:53 AM 22.1°F-5.5°C 19.6°F-6.9°C 90% 11.0 mph S17.7 kmh S 11.0 mph17.7 kmh 30.25 in1024.4 mb 0.00 in0.0 mm 0.00 in0.0 mm 0.00 in0.0 mm
12:52 AM 22.1°F-5.5°C 19.6°F-6.9°C 90% 8.0 mph S12.9 kmh S 11.0 mph17.7 kmh 30.25 in1024.4 mb 0.00 in0.0 mm 0.00 in0.0 mm 0.00 in0.0 mm
12:51 AM 22.1°F-5.5°C 19.6°F-6.9°C 90% 8.0 mph S12.9 kmh S 11.0 mph17.7 kmh 30.25 in1024.4 mb 0.00 in0.0 mm 0.00 in0.0 mm 0.00 in0.0 mm
12:50 AM 22.1°F-5.5°C 19.6°F-6.9°C 90% 9.0 mph SSW14.5 kmh SSW 11.0 mph17.7 kmh 30.25 in1024.4 mb 0.00 in0.0 mm 0.00 in0.0 mm 0.00 in0.0 mm
12:49 AM 22.2°F-5.4°C 19.7°F-6.8°C 90% 8.0 mph S12.9 kmh S 11.0 mph17.7 kmh 30.25 in1024.4 mb 0.00 in0.0 mm 0.00 in0.0 mm 0.00 in0.0 mm
12:48 AM 22.2°F-5.4°C 19.7°F-6.8°C 90% 7.0 mph S11.3 kmh S 11.0 mph17.7 kmh 30.25 in1024.4 mb 0.00 in0.0 mm 0.00 in0.0 mm 0.00 in0.0 mm
12:47 AM 22.2°F-5.4°C 19.7°F-6.8°C 90% 5.0 mph S8.0 kmh S 11.0 mph17.7 kmh 30.25 in1024.4 mb 0.00 in0.0 mm 0.00 in0.0 mm 0.00 in0.0 mm
12:46 AM 22.3°F-5.4°C 19.8°F-6.8°C 90% 6.0 mph S9.7 kmh S 11.0 mph17.7 kmh 30.25 in1024.4 mb 0.00 in0.0 mm 0.00 in0.0 mm 0.00 in0.0 mm
12:45 AM 22.3°F-5.4°C 19.8°F-6.8°C 90% 6.0 mph S9.7 kmh S 11.0 mph17.7 kmh 30.25 in1024.4 mb 0.00 in0.0 mm 0.00 in0.0 mm 0.00 in0.0 mm
12:44 AM 22.4°F-5.3°C 19.9°F-6.7°C 90% 6.0 mph S9.7 kmh S 11.0 mph17.7 kmh 30.26 in1024.7 mb 0.00 in0.0 mm 0.00 in0.0 mm 0.00 in0.0 mm
12:43 AM 22.4°F-5.3°C 19.9°F-6.7°C 90% 7.0 mph S11.3 kmh S 11.0 mph17.7 kmh 30.26 in1024.7 mb 0.00 in0.0 mm 0.00 in0.0 mm 0.00 in0.0 mm
12:42 AM 22.5°F-5.3°C 20.0°F-6.7°C 90% 6.0 mph S9.7 kmh S 11.0 mph17.7 kmh 30.25 in1024.4 mb 0.00 in0.0 mm 0.00 in0.0 mm 0.00 in0.0 mm
12:41 AM 22.5°F-5.3°C 20.0°F-6.7°C 90% 8.0 mph S12.9 kmh S 11.0 mph17.7 kmh 30.25 in1024.4 mb 0.00 in0.0 mm 0.00 in0.0 mm 0.00 in0.0 mm
12:40 AM 22.5°F-5.3°C 20.0°F-6.7°C 90% 9.0 mph S14.5 kmh S 11.0 mph17.7 kmh 30.25 in1024.4 mb 0.00 in0.0 mm 0.00 in0.0 mm 0.00 in0.0 mm
12:39 AM 22.5°F-5.3°C 20.0°F-6.7°C 90% 8.0 mph S12.9 kmh S 11.0 mph17.7 kmh 30.25 in1024.4 mb 0.00 in0.0 mm 0.00 in0.0 mm 0.00 in0.0 mm
12:38 AM 22.5°F-5.3°C 20.0°F-6.7°C 90% 7.0 mph S11.3 kmh S 11.0 mph17.7 kmh 30.25 in1024.4 mb 0.00 in0.0 mm 0.00 in0.0 mm 0.00 in0.0 mm
12:37 AM 22.5°F-5.3°C 20.0°F-6.7°C 90% 8.0 mph S12.9 kmh S 11.0 mph17.7 kmh 30.25 in1024.4 mb 0.00 in0.0 mm 0.00 in0.0 mm 0.00 in0.0 mm
12:36 AM 22.5°F-5.3°C 20.0°F-6.7°C 90% 8.0 mph S12.9 kmh S 11.0 mph17.7 kmh 30.25 in1024.4 mb 0.00 in0.0 mm 0.00 in0.0 mm 0.00 in0.0 mm
12:35 AM 22.5°F-5.3°C 20.0°F-6.7°C 90% 8.0 mph S12.9 kmh S 11.0 mph17.7 kmh 30.25 in1024.4 mb 0.00 in0.0 mm 0.00 in0.0 mm 0.00 in0.0 mm
12:34 AM 22.5°F-5.3°C 20.0°F-6.7°C 90% 7.0 mph S11.3 kmh S 11.0 mph17.7 kmh 30.25 in1024.4 mb 0.00 in0.0 mm 0.00 in0.0 mm 0.00 in0.0 mm
12:33 AM 22.5°F-5.3°C 20.0°F-6.7°C 90% 7.0 mph S11.3 kmh S 11.0 mph17.7 kmh 30.25 in1024.4 mb 0.00 in0.0 mm 0.00 in0.0 mm 0.00 in0.0 mm
12:32 AM 22.5°F-5.3°C 20.3°F-6.5°C 91% 7.0 mph S11.3 kmh S 11.0 mph17.7 kmh 30.25 in1024.4 mb 0.00 in0.0 mm 0.00 in0.0 mm 0.00 in0.0 mm
12:31 AM 22.5°F-5.3°C 20.3°F-6.5°C 91% 7.0 mph S11.3 kmh S 11.0 mph17.7 kmh 30.25 in1024.4 mb 0.00 in0.0 mm 0.00 in0.0 mm 0.00 in0.0 mm
12:30 AM 22.5°F-5.3°C 20.3°F-6.5°C 91% 11.0 mph S17.7 kmh S 11.0 mph17.7 kmh 30.25 in1024.4 mb 0.00 in0.0 mm 0.00 in0.0 mm 0.00 in0.0 mm
12:29 AM 22.4°F-5.3°C 20.2°F-6.6°C 91% 8.0 mph S12.9 kmh S 9.0 mph14.5 kmh 30.25 in1024.4 mb 0.00 in0.0 mm 0.00 in0.0 mm 0.00 in0.0 mm
12:28 AM 22.3°F-5.4°C 20.1°F-6.6°C 91% 6.0 mph S9.7 kmh S 9.0 mph14.5 kmh 30.25 in1024.4 mb 0.00 in0.0 mm 0.00 in0.0 mm 0.00 in0.0 mm
12:27 AM 22.3°F-5.4°C 20.1°F-6.6°C 91% 6.0 mph S9.7 kmh S 9.0 mph14.5 kmh 30.26 in1024.7 mb 0.00 in0.0 mm 0.00 in0.0 mm 0.00 in0.0 mm
12:26 AM 22.3°F-5.4°C 20.1°F-6.6°C 91% 4.0 mph S6.4 kmh S 9.0 mph14.5 kmh 30.26 in1024.7 mb 0.00 in0.0 mm 0.00 in0.0 mm 0.00 in0.0 mm
12:25 AM 22.3°F-5.4°C 20.1°F-6.6°C 91% 5.0 mph S8.0 kmh S 9.0 mph14.5 kmh 30.26 in1024.7 mb 0.00 in0.0 mm 0.00 in0.0 mm 0.00 in0.0 mm
12:24 AM 22.3°F-5.4°C 20.1°F-6.6°C 91% 7.0 mph S11.3 kmh S 9.0 mph14.5 kmh 30.26 in1024.7 mb 0.00 in0.0 mm 0.00 in0.0 mm 0.00 in0.0 mm
12:23 AM 22.3°F-5.4°C 19.8°F-6.8°C 90% 5.0 mph SSE8.0 kmh SSE 7.0 mph11.3 kmh 30.26 in1024.7 mb 0.00 in0.0 mm 0.00 in0.0 mm 0.00 in0.0 mm
12:22 AM 22.3°F-5.4°C 19.8°F-6.8°C 90% 6.0 mph SSE9.7 kmh SSE 7.0 mph11.3 kmh 30.26 in1024.7 mb 0.00 in0.0 mm 0.00 in0.0 mm 0.00 in0.0 mm
12:21 AM 22.3°F-5.4°C 19.8°F-6.8°C 90% 5.0 mph SSE8.0 kmh SSE 7.0 mph11.3 kmh 30.26 in1024.7 mb 0.00 in0.0 mm 0.00 in0.0 mm 0.00 in0.0 mm
12:20 AM 22.3°F-5.4°C 19.8°F-6.8°C 90% 6.0 mph SSE9.7 kmh SSE 7.0 mph11.3 kmh 30.26 in1024.7 mb 0.00 in0.0 mm 0.00 in0.0 mm 0.00 in0.0 mm
12:19 AM 22.3°F-5.4°C 19.8°F-6.8°C 90% 5.0 mph SSE8.0 kmh SSE 7.0 mph11.3 kmh 30.26 in1024.7 mb 0.00 in0.0 mm 0.00 in0.0 mm 0.00 in0.0 mm
12:18 AM 22.4°F-5.3°C 19.9°F-6.7°C 90% 7.0 mph SSE11.3 kmh SSE 7.0 mph11.3 kmh 30.26 in1024.7 mb 0.00 in0.0 mm 0.00 in0.0 mm 0.00 in0.0 mm
12:17 AM 22.4°F-5.3°C 19.9°F-6.7°C 90% 5.0 mph SSE8.0 kmh SSE 7.0 mph11.3 kmh 30.26 in1024.7 mb 0.00 in0.0 mm 0.00 in0.0 mm 0.00 in0.0 mm
12:16 AM 22.5°F-5.3°C 20.0°F-6.7°C 90% 6.0 mph SSE9.7 kmh SSE 7.0 mph11.3 kmh 30.26 in1024.7 mb 0.00 in0.0 mm 0.00 in0.0 mm 0.00 in0.0 mm
12:15 AM 22.5°F-5.3°C 20.0°F-6.7°C 90% 5.0 mph SSE8.0 kmh SSE 7.0 mph11.3 kmh 30.26 in1024.7 mb 0.00 in0.0 mm 0.00 in0.0 mm 0.00 in0.0 mm
12:14 AM 22.5°F-5.3°C 20.0°F-6.7°C 90% 4.0 mph SSE6.4 kmh SSE 7.0 mph11.3 kmh 30.26 in1024.7 mb 0.00 in0.0 mm 0.00 in0.0 mm 0.00 in0.0 mm
12:13 AM 22.5°F-5.3°C 20.0°F-6.7°C 90% 4.0 mph SSE6.4 kmh SSE 7.0 mph11.3 kmh 30.26 in1024.7 mb 0.00 in0.0 mm 0.00 in0.0 mm 0.00 in0.0 mm
12:11 AM 22.5°F-5.3°C 20.0°F-6.7°C 90% 5.0 mph SSE8.0 kmh SSE 7.0 mph11.3 kmh 30.26 in1024.7 mb 0.00 in0.0 mm 0.00 in0.0 mm 0.00 in0.0 mm
12:10 AM 22.5°F-5.3°C 20.0°F-6.7°C 90% 5.0 mph SSE8.0 kmh SSE 7.0 mph11.3 kmh 30.26 in1024.7 mb 0.00 in0.0 mm 0.00 in0.0 mm 0.00 in0.0 mm
12:09 AM 22.6°F-5.2°C 20.1°F-6.6°C 90% 5.0 mph S8.0 kmh S 7.0 mph11.3 kmh 30.26 in1024.7 mb 0.00 in0.0 mm 0.00 in0.0 mm 0.00 in0.0 mm
12:08 AM 22.6°F-5.2°C 20.1°F-6.6°C 90% 4.0 mph SSE6.4 kmh SSE 7.0 mph11.3 kmh 30.26 in1024.7 mb 0.00 in0.0 mm 0.00 in0.0 mm 0.00 in0.0 mm
12:07 AM 22.6°F-5.2°C 20.1°F-6.6°C 90% 5.0 mph SSE8.0 kmh SSE 7.0 mph11.3 kmh 30.26 in1024.7 mb 0.00 in0.0 mm 0.00 in0.0 mm 0.00 in0.0 mm
12:06 AM 22.6°F-5.2°C 20.1°F-6.6°C 90% 5.0 mph S8.0 kmh S 7.0 mph11.3 kmh 30.26 in1024.7 mb 0.00 in0.0 mm 0.00 in0.0 mm 0.00 in0.0 mm
12:05 AM 22.6°F-5.2°C 20.1°F-6.6°C 90% 5.0 mph S8.0 kmh S 7.0 mph11.3 kmh 30.26 in1024.7 mb 0.00 in0.0 mm 0.00 in0.0 mm 0.00 in0.0 mm
12:04 AM 22.6°F-5.2°C 20.1°F-6.6°C 90% 5.0 mph S8.0 kmh S 6.0 mph9.7 kmh 30.26 in1024.7 mb 0.00 in0.0 mm 0.00 in0.0 mm 0.00 in0.0 mm
12:03 AM 22.6°F-5.2°C 20.1°F-6.6°C 90% 5.0 mph S8.0 kmh S 6.0 mph9.7 kmh 30.26 in1024.7 mb 0.00 in0.0 mm 0.00 in0.0 mm 0.00 in0.0 mm
12:01 AM 22.6°F-5.2°C 20.1°F-6.6°C 90% 5.0 mph S8.0 kmh S 6.0 mph9.7 kmh 30.26 in1024.7 mb 0.00 in0.0 mm 0.00 in0.0 mm 0.00 in0.0 mm
12:00 AM 22.6°F-5.2°C 20.1°F-6.6°C 90% 6.0 mph S9.7 kmh S 6.0 mph9.7 kmh 30.26 in1024.7 mb 0.00 in0.0 mm 0.00 in0.0 mm 0.00 in0.0 mm